Time,TemperatureF,DewpointF,PressureIn,WindDirection,WindDirectionDegrees,WindSpeedMPH,WindSpeedGustMPH,Humidity,HourlyPrecipIn,Conditions,Clouds,dailyrainin,SolarRadiationWatts/m^2,SoftwareType,DateUTC
2013-04-17 00:02:00,33.1,29.9,30.39,North,350,0.0,0.0,88,0.00,,,0.00,0,Wunderground v.1.15,2013-04-17 05:02:00,
2013-04-17 00:03:00,33.2,30.0,30.39,North,350,0.0,2.0,88,0.00,,,0.00,0,Wunderground v.1.15,2013-04-17 05:03:00,
2013-04-17 00:04:00,33.2,29.8,30.39,North,350,0.0,2.0,87,0.00,,,0.00,0,Wunderground v.1.15,2013-04-17 05:04:00,
2013-04-17 00:07:00,33.1,29.7,30.39,North,350,0.0,2.0,87,0.00,,,0.00,0,Wunderground v.1.15,2013-04-17 05:07:00,
2013-04-17 00:09:00,33.2,29.8,30.39,North,350,0.0,2.0,87,0.00,,,0.00,0,Wunderground v.1.15,2013-04-17 05:09:00,
2013-04-17 00:10:00,33.2,29.8,30.38,North,350,0.0,0.0,87,0.00,,,0.00,0,Wunderground v.1.15,2013-04-17 05:10:00,
2013-04-17 00:13:00,33.3,29.8,30.39,North,350,0.0,0.0,87,0.00,,,0.00,0,Wunderground v.1.15,2013-04-17 05:13:00,
2013-04-17 00:16:00,33.4,29.9,30.39,North,350,0.0,0.0,87,0.00,,,0.00,0,Wunderground v.1.15,2013-04-17 05:16:00,
2013-04-17 00:17:00,33.4,29.9,30.39,North,350,0.0,0.0,87,0.00,,,0.00,0,Wunderground v.1.15,2013-04-17 05:17:00,
2013-04-17 00:20:00,33.5,30.0,30.39,North,350,0.0,0.0,87,0.00,,,0.00,0,Wunderground v.1.15,2013-04-17 05:20:00,
2013-04-17 00:22:00,33.6,30.1,30.39,North,350,0.0,0.0,87,0.00,,,0.00,0,Wunderground v.1.15,2013-04-17 05:22:00,
2013-04-17 00:24:00,33.7,30.2,30.39,North,350,0.0,0.0,87,0.00,,,0.00,0,Wunderground v.1.15,2013-04-17 05:24:00,
2013-04-17 00:25:00,33.6,30.1,30.39,North,350,0.0,1.0,87,0.00,,,0.00,0,Wunderground v.1.15,2013-04-17 05:25:00,
2013-04-17 00:26:00,33.6,30.1,30.39,North,350,0.0,1.0,87,0.00,,,0.00,0,Wunderground v.1.15,2013-04-17 05:26:00,
2013-04-17 00:28:00,33.6,30.1,30.39,North,350,0.0,1.0,87,0.00,,,0.00,0,Wunderground v.1.15,2013-04-17 05:28:00,
2013-04-17 00:31:00,33.5,30.0,30.39,North,350,0.0,0.0,87,0.00,,,0.00,0,Wunderground v.1.15,2013-04-17 05:31:00,
2013-04-17 00:32:00,33.5,30.0,30.39,North,350,0.0,0.0,87,0.00,,,0.00,0,Wunderground v.1.15,2013-04-17 05:32:00,
2013-04-17 00:33:00,33.6,30.1,30.39,North,350,0.0,0.0,87,0.00,,,0.00,0,Wunderground v.1.15,2013-04-17 05:33:00,
2013-04-17 00:35:00,33.6,30.1,30.39,North,350,0.0,0.0,87,0.00,,,0.00,0,Wunderground v.1.15,2013-04-17 05:35:00,
2013-04-17 00:37:00,33.7,30.2,30.39,North,350,0.0,0.0,87,0.00,,,0.00,0,Wunderground v.1.15,2013-04-17 05:37:00,
2013-04-17 00:39:00,33.7,30.2,30.39,North,350,0.0,0.0,87,0.00,,,0.00,0,Wunderground v.1.15,2013-04-17 05:39:00,
2013-04-17 00:40:00,33.8,30.3,30.39,North,350,0.0,0.0,87,0.00,,,0.00,0,Wunderground v.1.15,2013-04-17 05:40:00,
2013-04-17 00:41:00,33.8,30.3,30.39,North,350,0.0,0.0,87,0.00,,,0.00,0,Wunderground v.1.15,2013-04-17 05:41:00,
2013-04-17 00:43:00,33.8,30.3,30.39,North,350,0.0,0.0,87,0.00,,,0.00,0,Wunderground v.1.15,2013-04-17 05:43:00,
2013-04-17 00:46:00,33.9,30.4,30.39,North,350,0.0,0.0,87,0.00,,,0.00,0,Wunderground v.1.15,2013-04-17 05:46:00,
2013-04-17 00:47:00,33.9,30.4,30.39,North,350,0.0,0.0,87,0.00,,,0.00,0,Wunderground v.1.15,2013-04-17 05:47:00,
2013-04-17 00:48:00,33.8,30.3,30.39,North,350,0.0,1.0,87,0.00,,,0.00,0,Wunderground v.1.15,2013-04-17 05:48:00,
2013-04-17 00:51:00,33.8,30.3,30.39,North,350,0.0,2.0,87,0.00,,,0.00,0,Wunderground v.1.15,2013-04-17 05:51:00,
2013-04-17 00:52:00,33.8,30.3,30.39,North,350,0.0,2.0,87,0.00,,,0.00,0,Wunderground v.1.15,2013-04-17 05:52:00,
2013-04-17 00:54:00,33.8,30.3,30.39,North,350,0.0,2.0,87,0.00,,,0.00,0,Wunderground v.1.15,2013-04-17 05:54:00,
2013-04-17 00:55:00,33.8,30.3,30.39,North,350,0.0,2.0,87,0.00,,,0.00,0,Wunderground v.1.15,2013-04-17 05:55:00,
2013-04-17 00:56:00,33.8,30.3,30.39,North,350,0.0,2.0,87,0.00,,,0.00,0,Wunderground v.1.15,2013-04-17 05:56:00,
2013-04-17 00:57:00,33.8,30.3,30.39,North,350,0.0,2.0,87,0.00,,,0.00,0,Wunderground v.1.15,2013-04-17 05:57:00,
2013-04-17 00:58:00,33.8,30.3,30.39,North,350,0.0,2.0,87,0.00,,,0.00,0,Wunderground v.1.15,2013-04-17 05:58:00,
2013-04-17 01:00:00,33.9,30.4,30.39,North,350,0.0,0.0,87,0.00,,,0.00,0,Wunderground v.1.15,2013-04-17 06:00:00,
2013-04-17 01:01:00,33.9,30.4,30.39,North,350,0.0,0.0,87,0.00,,,0.00,0,Wunderground v.1.15,2013-04-17 06:01:00,
2013-04-17 01:02:00,33.9,30.4,30.39,North,350,0.0,0.0,87,0.00,,,0.00,0,Wunderground v.1.15,2013-04-17 06:02:00,
2013-04-17 01:04:00,33.9,30.4,30.39,North,350,0.0,0.0,87,0.00,,,0.00,0,Wunderground v.1.15,2013-04-17 06:04:00,
2013-04-17 01:06:00,33.9,30.4,30.39,North,350,0.0,2.0,87,0.00,,,0.00,0,Wunderground v.1.15,2013-04-17 06:06:00,
2013-04-17 01:07:00,33.9,30.4,30.38,North,350,0.0,2.0,87,0.00,,,0.00,0,Wunderground v.1.15,2013-04-17 06:07:00,
2013-04-17 01:08:00,34.0,30.5,30.38,North,350,0.0,2.0,87,0.00,,,0.00,0,Wunderground v.1.15,2013-04-17 06:08:00,
2013-04-17 01:12:00,34.1,30.6,30.38,North,350,0.0,0.0,87,0.00,,,0.00,0,Wunderground v.1.15,2013-04-17 06:12:00,
2013-04-17 01:13:00,34.2,30.7,30.38,North,350,0.0,0.0,87,0.00,,,0.00,0,Wunderground v.1.15,2013-04-17 06:13:00,
2013-04-17 01:15:00,34.2,30.7,30.39,North,350,0.0,0.0,87,0.00,,,0.00,0,Wunderground v.1.15,2013-04-17 06:15:00,
2013-04-17 01:17:00,34.2,30.4,30.39,North,350,0.0,0.0,86,0.00,,,0.00,0,Wunderground v.1.15,2013-04-17 06:17:00,
2013-04-17 01:18:00,34.3,30.5,30.38,North,350,0.0,0.0,86,0.00,,,0.00,0,Wunderground v.1.15,2013-04-17 06:18:00,
2013-04-17 01:21:00,34.4,30.6,30.39,North,350,0.0,0.0,86,0.00,,,0.00,0,Wunderground v.1.15,2013-04-17 06:21:00,
2013-04-17 01:22:00,34.4,30.6,30.39,North,350,0.0,0.0,86,0.00,,,0.00,0,Wunderground v.1.15,2013-04-17 06:22:00,
2013-04-17 01:23:00,34.4,30.6,30.39,North,350,0.0,0.0,86,0.00,,,0.00,0,Wunderground v.1.15,2013-04-17 06:23:00,
2013-04-17 01:24:00,34.4,30.4,30.39,North,350,0.0,0.0,85,0.00,,,0.00,0,Wunderground v.1.15,2013-04-17 06:24:00,
2013-04-17 01:27:00,34.5,30.5,30.38,North,350,0.0,0.0,85,0.00,,,0.00,0,Wunderground v.1.15,2013-04-17 06:27:00,
2013-04-17 01:28:00,34.5,30.5,30.38,North,350,0.0,0.0,85,0.00,,,0.00,0,Wunderground v.1.15,2013-04-17 06:28:00,
2013-04-17 01:29:00,34.6,30.3,30.38,North,350,0.0,0.0,84,0.00,,,0.00,0,Wunderground v.1.15,2013-04-17 06:29:00,
2013-04-17 01:32:00,34.6,30.3,30.38,North,350,0.0,0.0,84,0.00,,,0.00,0,Wunderground v.1.15,2013-04-17 06:32:00,
2013-04-17 01:35:00,34.5,30.2,30.38,North,350,0.0,0.0,84,0.00,,,0.00,0,Wunderground v.1.15,2013-04-17 06:35:00,
2013-04-17 01:36:00,34.5,30.2,30.38,North,350,0.0,0.0,84,0.00,,,0.00,0,Wunderground v.1.15,2013-04-17 06:36:00,
2013-04-17 01:37:00,34.4,30.1,30.38,North,350,0.0,0.0,84,0.00,,,0.00,0,Wunderground v.1.15,2013-04-17 06:37:00,
2013-04-17 01:39:00,34.3,30.0,30.38,North,350,0.0,0.0,84,0.00,,,0.00,0,Wunderground v.1.15,2013-04-17 06:39:00,
2013-04-17 01:40:00,34.3,30.0,30.38,North,350,0.0,0.0,84,0.00,,,0.00,0,Wunderground v.1.15,2013-04-17 06:40:00,
2013-04-17 01:42:00,34.2,29.9,30.38,North,350,0.0,0.0,84,0.00,,,0.00,0,Wunderground v.1.15,2013-04-17 06:42:00,
2013-04-17 01:43:00,34.1,29.8,30.38,North,350,0.0,0.0,84,0.00,,,0.00,0,Wunderground v.1.15,2013-04-17 06:43:00,
2013-04-17 01:44:00,34.1,29.8,30.38,North,350,0.0,0.0,84,0.00,,,0.00,0,Wunderground v.1.15,2013-04-17 06:44:00,
2013-04-17 01:45:00,34.1,29.8,30.38,North,350,0.0,0.0,84,0.00,,,0.00,0,Wunderground v.1.15,2013-04-17 06:45:00,
2013-04-17 01:47:00,34.0,30.0,30.38,North,350,0.0,0.0,85,0.00,,,0.00,0,Wunderground v.1.15,2013-04-17 06:47:00,
2013-04-17 01:49:00,33.9,29.9,30.38,North,350,0.0,0.0,85,0.00,,,0.00,0,Wunderground v.1.15,2013-04-17 06:49:00,
2013-04-17 01:50:00,33.9,29.9,30.38,North,350,0.0,0.0,85,0.00,,,0.00,0,Wunderground v.1.15,2013-04-17 06:50:00,
2013-04-17 01:51:00,33.8,29.8,30.38,North,350,0.0,0.0,85,0.00,,,0.00,0,Wunderground v.1.15,2013-04-17 06:51:00,
2013-04-17 01:55:00,33.6,29.9,30.38,North,350,0.0,0.0,86,0.00,,,0.00,0,Wunderground v.1.15,2013-04-17 06:55:00,
2013-04-17 01:56:00,33.6,29.9,30.38,North,350,0.0,0.0,86,0.00,,,0.00,0,Wunderground v.1.15,2013-04-17 06:56:00,
2013-04-17 01:57:00,33.5,29.8,30.38,North,350,0.0,0.0,86,0.00,,,0.00,0,Wunderground v.1.15,2013-04-17 06:57:00,
2013-04-17 01:58:00,33.4,29.7,30.38,North,350,0.0,0.0,86,0.00,,,0.00,0,Wunderground v.1.15,2013-04-17 06:58:00,
2013-04-17 02:01:00,33.3,29.6,30.38,North,350,0.0,0.0,86,0.00,,,0.00,0,Wunderground v.1.15,2013-04-17 07:01:00,
2013-04-17 02:02:00,33.3,29.6,30.38,North,350,0.0,0.0,86,0.00,,,0.00,0,Wunderground v.1.15,2013-04-17 07:02:00,
2013-04-17 02:03:00,33.3,29.6,30.38,North,350,0.0,0.0,86,0.00,,,0.00,0,Wunderground v.1.15,2013-04-17 07:03:00,
2013-04-17 02:04:00,33.2,29.5,30.38,North,350,0.0,0.0,86,0.00,,,0.00,0,Wunderground v.1.15,2013-04-17 07:04:00,
2013-04-17 02:06:00,33.1,29.4,30.38,North,350,0.0,0.0,86,0.00,,,0.00,0,Wunderground v.1.15,2013-04-17 07:06:00,
2013-04-17 02:07:00,33.1,29.4,30.38,North,350,0.0,0.0,86,0.00,,,0.00,0,Wunderground v.1.15,2013-04-17 07:07:00,
2013-04-17 02:09:00,33.1,29.4,30.38,North,350,0.0,0.0,86,0.00,,,0.00,0,Wunderground v.1.15,2013-04-17 07:09:00,
2013-04-17 02:11:00,33.1,29.4,30.38,North,350,0.0,0.0,86,0.00,,,0.00,0,Wunderground v.1.15,2013-04-17 07:11:00,
2013-04-17 02:12:00,33.0,29.3,30.38,North,350,0.0,0.0,86,0.00,,,0.00,0,Wunderground v.1.15,2013-04-17 07:12:00,
2013-04-17 02:13:00,33.0,29.3,30.38,North,350,0.0,0.0,86,0.00,,,0.00,0,Wunderground v.1.15,2013-04-17 07:13:00,
2013-04-17 02:14:00,32.9,29.2,30.38,North,350,0.0,0.0,86,0.00,,,0.00,0,Wunderground v.1.15,2013-04-17 07:14:00,
2013-04-17 02:16:00,32.8,29.1,30.38,North,350,0.0,0.0,86,0.00,,,0.00,0,Wunderground v.1.15,2013-04-17 07:16:00,
2013-04-17 02:17:00,32.8,29.4,30.38,North,350,0.0,0.0,87,0.00,,,0.00,0,Wunderground v.1.15,2013-04-17 07:17:00,
2013-04-17 02:19:00,32.7,29.3,30.38,North,350,0.0,0.0,87,0.00,,,0.00,0,Wunderground v.1.15,2013-04-17 07:19:00,
2013-04-17 02:20:00,32.7,29.3,30.38,North,350,0.0,0.0,87,0.00,,,0.00,0,Wunderground v.1.15,2013-04-17 07:20:00,
2013-04-17 02:23:00,32.7,29.3,30.38,North,350,0.0,0.0,87,0.00,,,0.00,0,Wunderground v.1.15,2013-04-17 07:23:00,
2013-04-17 02:24:00,32.7,29.3,30.38,North,350,0.0,0.0,87,0.00,,,0.00,0,Wunderground v.1.15,2013-04-17 07:24:00,
2013-04-17 02:25:00,32.6,29.2,30.38,North,350,0.0,0.0,87,0.00,,,0.00,0,Wunderground v.1.15,2013-04-17 07:25:00,
2013-04-17 02:26:00,32.5,29.1,30.38,North,350,0.0,0.0,87,0.00,,,0.00,0,Wunderground v.1.15,2013-04-17 07:26:00,
2013-04-17 02:29:00,32.3,28.9,30.37,North,350,0.0,0.0,87,0.00,,,0.00,0,Wunderground v.1.15,2013-04-17 07:29:00,
2013-04-17 02:30:00,32.1,28.7,30.37,North,350,0.0,0.0,87,0.00,,,0.00,0,Wunderground v.1.15,2013-04-17 07:30:00,
2013-04-17 02:31:00,32.1,28.9,30.37,North,350,0.0,0.0,88,0.00,,,0.00,0,Wunderground v.1.15,2013-04-17 07:31:00,
2013-04-17 02:34:00,31.9,28.8,30.37,North,350,0.0,0.0,88,0.00,,,0.00,0,Wunderground v.1.15,2013-04-17 07:34:00,
2013-04-17 02:35:00,31.9,28.8,30.37,North,350,0.0,0.0,88,0.00,,,0.00,0,Wunderground v.1.15,2013-04-17 07:35:00,
2013-04-17 02:36:00,31.8,28.7,30.37,North,350,0.0,0.0,88,0.00,,,0.00,0,Wunderground v.1.15,2013-04-17 07:36:00,
2013-04-17 02:37:00,31.8,28.7,30.37,North,350,0.0,0.0,88,0.00,,,0.00,0,Wunderground v.1.15,2013-04-17 07:37:00,
2013-04-17 02:39:00,31.8,28.7,30.37,North,350,0.0,0.0,88,0.00,,,0.00,0,Wunderground v.1.15,2013-04-17 07:39:00,
2013-04-17 02:42:00,31.7,28.6,30.37,North,350,0.0,0.0,88,0.00,,,0.00,0,Wunderground v.1.15,2013-04-17 07:42:00,
2013-04-17 02:44:00,31.6,28.5,30.37,North,350,0.0,0.0,88,0.00,,,0.00,0,Wunderground v.1.15,2013-04-17 07:44:00,
2013-04-17 02:47:00,31.3,28.2,30.37,North,350,0.0,0.0,88,0.00,,,0.00,0,Wunderground v.1.15,2013-04-17 07:47:00,
2013-04-17 02:48:00,31.3,28.2,30.37,North,350,0.0,0.0,88,0.00,,,0.00,0,Wunderground v.1.15,2013-04-17 07:48:00,
2013-04-17 02:49:00,31.3,28.2,30.37,North,350,0.0,0.0,88,0.00,,,0.00,0,Wunderground v.1.15,2013-04-17 07:49:00,
2013-04-17 02:50:00,31.3,28.4,30.37,North,350,0.0,0.0,89,0.00,,,0.00,0,Wunderground v.1.15,2013-04-17 07:50:00,
2013-04-17 02:54:00,31.0,28.1,30.37,North,350,0.0,0.0,89,0.00,,,0.00,0,Wunderground v.1.15,2013-04-17 07:54:00,
2013-04-17 02:55:00,31.0,28.1,30.37,North,350,0.0,0.0,89,0.00,,,0.00,0,Wunderground v.1.15,2013-04-17 07:55:00,
2013-04-17 02:56:00,31.0,28.1,30.37,North,350,0.0,0.0,89,0.00,,,0.00,0,Wunderground v.1.15,2013-04-17 07:56:00,
2013-04-17 02:59:00,30.9,28.0,30.37,North,350,0.0,0.0,89,0.00,,,0.00,0,Wunderground v.1.15,2013-04-17 07:59:00,
2013-04-17 03:01:00,30.9,28.0,30.37,North,350,0.0,0.0,89,0.00,,,0.00,0,Wunderground v.1.15,2013-04-17 08:01:00,
2013-04-17 03:02:00,30.8,27.9,30.37,North,350,0.0,0.0,89,0.00,,,0.00,0,Wunderground v.1.15,2013-04-17 08:02:00,
2013-04-17 03:03:00,30.7,27.8,30.37,North,350,0.0,0.0,89,0.00,,,0.00,0,Wunderground v.1.15,2013-04-17 08:03:00,
2013-04-17 03:06:00,30.7,28.1,30.37,North,350,0.0,0.0,90,0.00,,,0.00,0,Wunderground v.1.15,2013-04-17 08:06:00,
2013-04-17 03:07:00,30.7,28.1,30.37,North,350,0.0,0.0,90,0.00,,,0.00,0,Wunderground v.1.15,2013-04-17 08:07:00,
2013-04-17 03:09:00,30.6,28.0,30.37,North,350,0.0,0.0,90,0.00,,,0.00,0,Wunderground v.1.15,2013-04-17 08:09:00,
2013-04-17 03:11:00,30.5,27.9,30.37,North,350,0.0,0.0,90,0.00,,,0.00,0,Wunderground v.1.15,2013-04-17 08:11:00,
2013-04-17 03:13:00,30.5,27.9,30.37,North,350,0.0,0.0,90,0.00,,,0.00,0,Wunderground v.1.15,2013-04-17 08:13:00,
2013-04-17 03:17:00,30.4,27.8,30.37,North,350,0.0,0.0,90,0.00,,,0.00,0,Wunderground v.1.15,2013-04-17 08:17:00,
2013-04-17 03:19:00,30.4,27.8,30.37,North,350,0.0,0.0,90,0.00,,,0.00,0,Wunderground v.1.15,2013-04-17 08:19:00,
2013-04-17 03:20:00,30.4,27.8,30.37,North,350,0.0,0.0,90,0.00,,,0.00,0,Wunderground v.1.15,2013-04-17 08:20:00,
2013-04-17 03:22:00,30.4,27.8,30.37,North,350,0.0,0.0,90,0.00,,,0.00,0,Wunderground v.1.15,2013-04-17 08:22:00,
2013-04-17 03:24:00,30.5,27.9,30.37,North,350,0.0,0.0,90,0.00,,,0.00,0,Wunderground v.1.15,2013-04-17 08:24:00,
2013-04-17 03:25:00,30.5,27.9,30.37,North,350,0.0,0.0,90,0.00,,,0.00,0,Wunderground v.1.15,2013-04-17 08:25:00,
2013-04-17 03:26:00,30.4,27.8,30.37,North,350,0.0,0.0,90,0.00,,,0.00,0,Wunderground v.1.15,2013-04-17 08:26:00,
2013-04-17 03:28:00,30.4,27.8,30.37,North,350,0.0,0.0,90,0.00,,,0.00,0,Wunderground v.1.15,2013-04-17 08:28:00,
2013-04-17 03:29:00,30.4,27.8,30.37,North,350,0.0,0.0,90,0.00,,,0.00,0,Wunderground v.1.15,2013-04-17 08:29:00,
2013-04-17 03:32:00,30.4,27.8,30.38,North,350,0.0,1.0,90,0.00,,,0.00,0,Wunderground v.1.15,2013-04-17 08:32:00,
2013-04-17 03:33:00,30.4,27.8,30.38,North,350,0.0,1.0,90,0.00,,,0.00,0,Wunderground v.1.15,2013-04-17 08:33:00,
2013-04-17 03:34:00,30.4,27.8,30.38,North,350,0.0,1.0,90,0.00,,,0.00,0,Wunderground v.1.15,2013-04-17 08:34:00,
2013-04-17 03:35:00,30.3,28.0,30.38,North,350,0.0,1.0,91,0.00,,,0.00,0,Wunderground v.1.15,2013-04-17 08:35:00,
2013-04-17 03:39:00,30.4,28.1,30.38,North,350,0.0,1.0,91,0.00,,,0.00,0,Wunderground v.1.15,2013-04-17 08:39:00,
2013-04-17 03:41:00,30.5,28.2,30.38,North,350,0.0,0.0,91,0.00,,,0.00,0,Wunderground v.1.15,2013-04-17 08:41:00,
2013-04-17 03:43:00,30.4,28.1,30.38,North,350,0.0,0.0,91,0.00,,,0.00,0,Wunderground v.1.15,2013-04-17 08:43:00,
2013-04-17 03:44:00,30.4,28.1,30.38,North,350,0.0,0.0,91,0.00,,,0.00,0,Wunderground v.1.15,2013-04-17 08:44:00,
2013-04-17 03:45:00,30.3,28.0,30.38,North,350,0.0,0.0,91,0.00,,,0.00,0,Wunderground v.1.15,2013-04-17 08:45:00,
2013-04-17 03:47:00,30.4,28.1,30.38,North,350,0.0,0.0,91,0.00,,,0.00,0,Wunderground v.1.15,2013-04-17 08:47:00,
2013-04-17 03:49:00,30.3,28.0,30.38,North,350,0.0,0.0,91,0.00,,,0.00,0,Wunderground v.1.15,2013-04-17 08:49:00,
2013-04-17 03:50:00,30.4,28.1,30.38,North,350,0.0,0.0,91,0.00,,,0.00,0,Wunderground v.1.15,2013-04-17 08:50:00,
2013-04-17 03:51:00,30.4,28.1,30.38,North,350,0.0,0.0,91,0.00,,,0.00,0,Wunderground v.1.15,2013-04-17 08:51:00,
2013-04-17 03:56:00,30.5,28.2,30.37,North,350,0.0,0.0,91,0.00,,,0.00,0,Wunderground v.1.15,2013-04-17 08:56:00,
2013-04-17 03:58:00,30.6,28.3,30.37,North,350,0.0,0.0,91,0.00,,,0.00,0,Wunderground v.1.15,2013-04-17 08:58:00,
2013-04-17 03:59:00,30.6,28.3,30.37,North,350,0.0,0.0,91,0.00,,,0.00,0,Wunderground v.1.15,2013-04-17 08:59:00,
2013-04-17 04:00:00,30.6,28.3,30.37,North,350,0.0,0.0,91,0.00,,,0.00,0,Wunderground v.1.15,2013-04-17 09:00:00,
2013-04-17 04:05:00,30.7,28.4,30.36,North,350,0.0,0.0,91,0.00,,,0.00,0,Wunderground v.1.15,2013-04-17 09:05:00,
2013-04-17 04:06:00,30.7,28.4,30.36,North,350,0.0,0.0,91,0.00,,,0.00,0,Wunderground v.1.15,2013-04-17 09:06:00,
2013-04-17 04:10:00,30.8,28.5,30.36,North,350,0.0,0.0,91,0.00,,,0.00,0,Wunderground v.1.15,2013-04-17 09:10:00,
2013-04-17 04:11:00,30.8,28.5,30.36,North,350,0.0,0.0,91,0.00,,,0.00,0,Wunderground v.1.15,2013-04-17 09:11:00,
2013-04-17 04:12:00,30.9,28.6,30.36,North,350,0.0,0.0,91,0.00,,,0.00,0,Wunderground v.1.15,2013-04-17 09:12:00,
2013-04-17 04:16:00,31.0,28.7,30.36,North,350,0.0,0.0,91,0.00,,,0.00,0,Wunderground v.1.15,2013-04-17 09:16:00,
2013-04-17 04:17:00,31.1,28.8,30.36,North,350,0.0,2.0,91,0.00,,,0.00,0,Wunderground v.1.15,2013-04-17 09:17:00,
2013-04-17 04:18:00,31.1,28.8,30.36,North,350,0.0,2.0,91,0.00,,,0.00,0,Wunderground v.1.15,2013-04-17 09:18:00,
2013-04-17 04:19:00,31.1,28.8,30.36,North,350,0.0,2.0,91,0.00,,,0.00,0,Wunderground v.1.15,2013-04-17 09:19:00,
2013-04-17 04:23:00,31.3,29.0,30.36,North,350,0.0,0.0,91,0.00,,,0.00,0,Wunderground v.1.15,2013-04-17 09:23:00,
2013-04-17 04:26:00,31.5,29.2,30.35,North,350,0.0,0.0,91,0.00,,,0.00,0,Wunderground v.1.15,2013-04-17 09:26:00,
2013-04-17 04:28:00,31.5,29.2,30.35,North,350,0.0,0.0,91,0.00,,,0.00,0,Wunderground v.1.15,2013-04-17 09:28:00,
2013-04-17 04:29:00,31.4,29.1,30.35,North,350,0.0,0.0,91,0.00,,,0.00,0,Wunderground v.1.15,2013-04-17 09:29:00,
2013-04-17 04:30:00,31.4,29.1,30.35,North,350,0.0,0.0,91,0.00,,,0.00,0,Wunderground v.1.15,2013-04-17 09:30:00,
2013-04-17 04:32:00,31.4,29.1,30.35,North,350,0.0,0.0,91,0.00,,,0.00,0,Wunderground v.1.15,2013-04-17 09:32:00,
2013-04-17 04:37:00,31.4,29.1,30.34,North,350,0.0,0.0,91,0.00,,,0.00,0,Wunderground v.1.15,2013-04-17 09:37:00,
2013-04-17 04:38:00,31.4,29.1,30.34,North,350,0.0,0.0,91,0.00,,,0.00,0,Wunderground v.1.15,2013-04-17 09:38:00,
2013-04-17 04:41:00,31.5,29.2,30.34,North,350,0.0,0.0,91,0.00,,,0.00,0,Wunderground v.1.15,2013-04-17 09:41:00,
2013-04-17 04:43:00,31.6,29.3,30.34,North,350,0.0,0.0,91,0.00,,,0.00,0,Wunderground v.1.15,2013-04-17 09:43:00,
2013-04-17 04:46:00,31.6,29.3,30.34,North,350,0.0,0.0,91,0.00,,,0.00,0,Wunderground v.1.15,2013-04-17 09:46:00,
2013-04-17 04:48:00,31.7,29.4,30.33,North,350,0.0,0.0,91,0.00,,,0.00,0,Wunderground v.1.15,2013-04-17 09:48:00,
2013-04-17 04:51:00,31.7,29.4,30.33,North,350,0.0,0.0,91,0.00,,,0.00,0,Wunderground v.1.15,2013-04-17 09:51:00,
2013-04-17 04:52:00,31.6,29.3,30.33,North,350,0.0,2.0,91,0.00,,,0.00,0,Wunderground v.1.15,2013-04-17 09:52:00,
2013-04-17 04:53:00,31.6,29.3,30.33,North,350,0.0,2.0,91,0.00,,,0.00,0,Wunderground v.1.15,2013-04-17 09:53:00,
2013-04-17 04:57:00,31.6,29.3,30.33,North,350,1.0,3.0,91,0.00,,,0.00,0,Wunderground v.1.15,2013-04-17 09:57:00,
2013-04-17 04:58:00,31.6,29.3,30.33,North,350,1.0,3.0,91,0.00,,,0.00,0,Wunderground v.1.15,2013-04-17 09:58:00,
2013-04-17 05:01:00,31.6,29.3,30.33,North,350,1.0,1.0,91,0.00,,,0.00,0,Wunderground v.1.15,2013-04-17 10:01:00,
2013-04-17 05:02:00,31.6,29.3,30.33,North,350,1.0,1.0,91,0.00,,,0.00,0,Wunderground v.1.15,2013-04-17 10:02:00,
2013-04-17 05:04:00,31.6,29.3,30.33,North,350,0.0,1.0,91,0.00,,,0.00,0,Wunderground v.1.15,2013-04-17 10:04:00,
2013-04-17 05:05:00,31.6,29.3,30.32,North,350,0.0,1.0,91,0.00,,,0.00,0,Wunderground v.1.15,2013-04-17 10:05:00,
2013-04-17 05:07:00,31.7,29.4,30.32,North,350,0.0,1.0,91,0.00,,,0.00,0,Wunderground v.1.15,2013-04-17 10:07:00,
2013-04-17 05:09:00,31.7,29.4,30.32,North,350,0.0,1.0,91,0.00,,,0.00,0,Wunderground v.1.15,2013-04-17 10:09:00,
2013-04-17 05:10:00,31.7,29.6,30.32,North,350,0.0,0.0,92,0.00,,,0.00,0,Wunderground v.1.15,2013-04-17 10:10:00,
2013-04-17 05:11:00,31.8,29.5,30.32,North,350,0.0,0.0,91,0.00,,,0.00,0,Wunderground v.1.15,2013-04-17 10:11:00,
2013-04-17 05:13:00,31.9,29.6,30.33,North,350,0.0,1.0,91,0.00,,,0.00,0,Wunderground v.1.15,2013-04-17 10:13:00,
2013-04-17 05:14:00,31.9,29.6,30.33,North,350,0.0,1.0,91,0.00,,,0.00,0,Wunderground v.1.15,2013-04-17 10:14:00,
2013-04-17 05:19:00,31.9,29.6,30.33,North,350,0.0,1.0,91,0.00,,,0.00,0,Wunderground v.1.15,2013-04-17 10:19:00,
2013-04-17 05:20:00,32.1,29.8,30.33,North,350,0.0,0.0,91,0.00,,,0.00,0,Wunderground v.1.15,2013-04-17 10:20:00,
2013-04-17 05:21:00,32.1,29.8,30.33,North,350,0.0,0.0,91,0.00,,,0.00,0,Wunderground v.1.15,2013-04-17 10:21:00,
2013-04-17 05:26:00,32.5,30.2,30.33,North,350,0.0,1.0,91,0.00,,,0.00,0,Wunderground v.1.15,2013-04-17 10:26:00,
2013-04-17 05:27:00,32.5,30.2,30.33,North,350,0.0,1.0,91,0.00,,,0.00,0,Wunderground v.1.15,2013-04-17 10:27:00,
2013-04-17 05:28:00,32.6,30.0,30.33,North,350,0.0,1.0,90,0.00,,,0.00,0,Wunderground v.1.15,2013-04-17 10:28:00,
2013-04-17 05:29:00,32.6,30.0,30.33,North,350,0.0,1.0,90,0.00,,,0.00,0,Wunderground v.1.15,2013-04-17 10:29:00,
2013-04-17 05:34:00,33.4,30.5,30.33,North,350,0.0,0.0,89,0.00,,,0.00,0,Wunderground v.1.15,2013-04-17 10:34:00,
2013-04-17 05:35:00,33.5,30.6,30.33,North,350,0.0,2.0,89,0.00,,,0.00,0,Wunderground v.1.15,2013-04-17 10:35:00,
2013-04-17 05:36:00,33.7,30.8,30.33,North,350,0.0,2.0,89,0.00,,,0.00,0,Wunderground v.1.15,2013-04-17 10:36:00,
2013-04-17 05:38:00,33.9,30.7,30.33,North,350,0.0,2.0,88,0.00,,,0.00,0,Wunderground v.1.15,2013-04-17 10:38:00,
2013-04-17 05:40:00,34.1,30.6,30.33,North,350,1.0,1.0,87,0.00,,,0.00,0,Wunderground v.1.15,2013-04-17 10:40:00,
2013-04-17 05:41:00,34.2,30.7,30.33,North,350,1.0,1.0,87,0.00,,,0.00,0,Wunderground v.1.15,2013-04-17 10:41:00,
2013-04-17 05:42:00,34.4,30.6,30.33,North,350,1.0,3.0,86,0.00,,,0.00,0,Wunderground v.1.15,2013-04-17 10:42:00,
2013-04-17 05:45:00,34.7,30.7,30.33,North,350,1.0,3.0,85,0.00,,,0.00,0,Wunderground v.1.15,2013-04-17 10:45:00,
2013-04-17 05:47:00,34.7,30.4,30.33,North,350,1.0,3.0,84,0.00,,,0.00,0,Wunderground v.1.15,2013-04-17 10:47:00,
2013-04-17 05:48:00,34.7,30.4,30.33,North,350,1.0,5.0,84,0.00,,,0.00,0,Wunderground v.1.15,2013-04-17 10:48:00,
2013-04-17 05:50:00,34.8,30.5,30.33,NNE,15,2.0,6.0,84,0.00,,,0.00,0,Wunderground v.1.15,2013-04-17 10:50:00,
2013-04-17 05:51:00,34.9,30.3,30.33,North,355,2.0,6.0,83,0.00,,,0.00,0,Wunderground v.1.15,2013-04-17 10:51:00,
2013-04-17 05:52:00,34.9,30.3,30.33,NNE,22,3.0,6.0,83,0.00,,,0.00,0,Wunderground v.1.15,2013-04-17 10:52:00,
2013-04-17 05:53:00,35.1,30.5,30.33,North,5,3.0,6.0,83,0.00,,,0.00,0,Wunderground v.1.15,2013-04-17 10:53:00,
2013-04-17 05:54:00,35.1,30.5,30.33,NNE,22,3.0,6.0,83,0.00,,,0.00,0,Wunderground v.1.15,2013-04-17 10:54:00,
2013-04-17 05:55:00,35.2,30.3,30.33,East,87,4.0,6.0,82,0.00,,,0.00,0,Wunderground v.1.15,2013-04-17 10:55:00,
2013-04-17 05:57:00,35.3,30.4,30.33,NNE,29,4.0,6.0,82,0.00,,,0.00,0,Wunderground v.1.15,2013-04-17 10:57:00,
2013-04-17 06:00:00,35.4,30.1,30.33,NNE,26,4.0,4.0,81,0.00,,,0.00,0,Wunderground v.1.15,2013-04-17 11:00:00,
2013-04-17 06:03:00,35.5,30.2,30.33,NE,49,3.0,5.0,81,0.00,,,0.00,0,Wunderground v.1.15,2013-04-17 11:03:00,
2013-04-17 06:04:00,35.5,30.2,30.34,NNE,30,3.0,5.0,81,0.00,,,0.00,0,Wunderground v.1.15,2013-04-17 11:04:00,
2013-04-17 06:06:00,35.6,30.0,30.34,NNE,25,3.0,5.0,80,0.00,,,0.00,0,Wunderground v.1.15,2013-04-17 11:06:00,
2013-04-17 06:08:00,35.7,30.1,30.33,North,5,3.0,5.0,80,0.00,,,0.00,5,Wunderground v.1.15,2013-04-17 11:08:00,
2013-04-17 06:09:00,35.7,30.1,30.33,North,5,4.0,5.0,80,0.00,,,0.00,5,Wunderground v.1.15,2013-04-17 11:09:00,
2013-04-17 06:11:00,35.7,30.1,30.32,North,5,4.0,6.0,80,0.00,,,0.00,7,Wunderground v.1.15,2013-04-17 11:11:00,
2013-04-17 06:14:00,35.7,30.1,30.31,NE,42,4.0,6.0,80,0.00,,,0.00,7,Wunderground v.1.15,2013-04-17 11:14:00,
2013-04-17 06:16:00,35.7,29.8,30.31,NNE,17,4.0,6.0,79,0.00,,,0.00,9,Wunderground v.1.15,2013-04-17 11:16:00,
2013-04-17 06:18:00,35.7,29.8,30.31,NNE,13,4.0,6.0,79,0.00,,,0.00,9,Wunderground v.1.15,2013-04-17 11:18:00,
2013-04-17 06:20:00,35.7,29.8,30.31,NE,41,4.0,9.0,79,0.00,,,0.00,9,Wunderground v.1.15,2013-04-17 11:20:00,
2013-04-17 06:22:00,35.7,29.8,30.30,NNE,14,4.0,13.0,79,0.00,,,0.00,9,Wunderground v.1.15,2013-04-17 11:22:00,
2013-04-17 06:24:00,35.7,29.8,30.30,North,360,5.0,13.0,79,0.00,,,0.00,11,Wunderground v.1.15,2013-04-17 11:24:00,
2013-04-17 06:29:00,35.6,30.0,30.31,ENE,59,7.0,13.0,80,0.00,,,0.00,16,Wunderground v.1.15,2013-04-17 11:29:00,
2013-04-17 06:30:00,35.6,30.0,30.32,NE,41,7.0,7.0,80,0.00,,,0.00,18,Wunderground v.1.15,2013-04-17 11:30:00,
2013-04-17 06:31:00,35.6,30.0,30.32,ENE,58,6.0,7.0,80,0.00,,,0.00,18,Wunderground v.1.15,2013-04-17 11:31:00,
2013-04-17 06:32:00,35.5,29.9,30.32,ENE,67,5.0,7.0,80,0.00,,,0.00,16,Wunderground v.1.15,2013-04-17 11:32:00,
2013-04-17 06:35:00,35.5,29.9,30.32,ENE,74,4.0,8.0,80,0.00,,,0.00,14,Wunderground v.1.15,2013-04-17 11:35:00,
2013-04-17 06:36:00,35.5,29.9,30.32,NE,46,4.0,8.0,80,0.00,,,0.00,14,Wunderground v.1.15,2013-04-17 11:36:00,
2013-04-17 06:37:00,35.5,29.9,30.32,NE,51,4.0,8.0,80,0.00,,,0.00,14,Wunderground v.1.15,2013-04-17 11:37:00,
2013-04-17 06:39:00,35.5,30.2,30.33,ENE,63,4.0,8.0,81,0.00,,,0.00,14,Wunderground v.1.15,2013-04-17 11:39:00,
2013-04-17 06:43:00,35.5,30.2,30.33,ENE,65,4.0,4.0,81,0.00,,,0.00,21,Wunderground v.1.15,2013-04-17 11:43:00,
2013-04-17 06:44:00,35.5,30.2,30.34,NW,319,4.0,4.0,81,0.00,,,0.00,23,Wunderground v.1.15,2013-04-17 11:44:00,
2013-04-17 06:45:00,35.5,30.2,30.35,ESE,118,4.0,4.0,81,0.00,,,0.00,25,Wunderground v.1.15,2013-04-17 11:45:00,
2013-04-17 06:46:00,35.6,30.3,30.37,SE,130,4.0,5.0,81,0.00,,,0.00,26,Wunderground v.1.15,2013-04-17 11:46:00,
2013-04-17 06:51:00,35.7,30.4,30.36,NE,42,3.0,3.0,81,0.00,,,0.00,33,Wunderground v.1.15,2013-04-17 11:51:00,
2013-04-17 06:52:00,35.7,30.4,30.36,ENE,63,4.0,4.0,81,0.00,,,0.00,33,Wunderground v.1.15,2013-04-17 11:52:00,
2013-04-17 06:53:00,35.7,30.4,30.37,East,84,3.0,4.0,81,0.00,,,0.00,35,Wunderground v.1.15,2013-04-17 11:53:00,
2013-04-17 06:54:00,35.7,30.4,30.37,East,84,3.0,4.0,81,0.00,,,0.00,37,Wunderground v.1.15,2013-04-17 11:54:00,
2013-04-17 06:57:00,35.8,30.5,30.37,East,84,2.0,4.0,81,0.00,,,0.00,37,Wunderground v.1.15,2013-04-17 11:57:00,
2013-04-17 06:58:00,35.7,30.4,30.37,ENE,58,2.0,4.0,81,0.00,,,0.00,37,Wunderground v.1.15,2013-04-17 11:58:00,
2013-04-17 07:00:00,35.7,30.4,30.36,ENE,72,2.0,5.0,81,0.00,,,0.00,37,Wunderground v.1.15,2013-04-17 12:00:00,
2013-04-17 07:02:00,35.8,30.8,30.37,East,85,2.0,5.0,82,0.00,,,0.00,37,Wunderground v.1.15,2013-04-17 12:02:00,
2013-04-17 07:03:00,35.8,30.8,30.37,NE,51,2.0,6.0,82,0.00,,,0.00,33,Wunderground v.1.15,2013-04-17 12:03:00,
2013-04-17 07:05:00,35.8,30.8,30.37,ENE,75,3.0,6.0,82,0.00,,,0.00,33,Wunderground v.1.15,2013-04-17 12:05:00,
2013-04-17 07:06:00,35.8,30.8,30.37,NE,38,3.0,6.0,82,0.00,,,0.00,33,Wunderground v.1.15,2013-04-17 12:06:00,
2013-04-17 07:07:00,35.8,30.8,30.37,NE,50,4.0,6.0,82,0.00,,,0.00,33,Wunderground v.1.15,2013-04-17 12:07:00,
2013-04-17 07:10:00,35.9,30.9,30.36,NNE,23,5.0,5.0,82,0.00,,,0.00,37,Wunderground v.1.15,2013-04-17 12:10:00,
2013-04-17 07:11:00,35.9,30.9,30.36,ENE,59,5.0,7.0,82,0.00,,,0.00,39,Wunderground v.1.15,2013-04-17 12:11:00,
2013-04-17 07:12:00,35.9,30.9,30.36,NNE,19,5.0,7.0,82,0.00,,,0.00,39,Wunderground v.1.15,2013-04-17 12:12:00,
2013-04-17 07:13:00,35.9,30.9,30.36,NE,52,6.0,12.0,82,0.00,,,0.00,40,Wunderground v.1.15,2013-04-17 12:13:00,
2013-04-17 07:15:00,35.9,30.9,30.37,NE,50,6.0,12.0,82,0.00,,,0.00,42,Wunderground v.1.15,2013-04-17 12:15:00,
2013-04-17 07:17:00,36.0,31.0,30.37,NE,50,7.0,12.0,82,0.00,,,0.00,44,Wunderground v.1.15,2013-04-17 12:17:00,
2013-04-17 07:21:00,36.0,31.3,30.37,NE,55,6.0,7.0,83,0.00,,,0.00,47,Wunderground v.1.15,2013-04-17 12:21:00,
2013-04-17 07:22:00,36.0,31.3,30.37,ENE,62,6.0,7.0,83,0.00,,,0.00,47,Wunderground v.1.15,2013-04-17 12:22:00,
2013-04-17 07:26:00,36.1,31.4,30.37,ENE,61,5.0,7.0,83,0.00,,,0.00,51,Wunderground v.1.15,2013-04-17 12:26:00,
2013-04-17 07:27:00,36.1,31.4,30.37,East,85,5.0,7.0,83,0.00,,,0.00,53,Wunderground v.1.15,2013-04-17 12:27:00,
2013-04-17 07:29:00,36.1,31.4,30.37,NE,42,5.0,7.0,83,0.00,,,0.00,54,Wunderground v.1.15,2013-04-17 12:29:00,
2013-04-17 07:35:00,36.2,31.5,30.37,NE,44,4.0,6.0,83,0.00,,,0.00,56,Wunderground v.1.15,2013-04-17 12:35:00,
2013-04-17 07:36:00,36.2,31.5,30.37,NE,48,4.0,6.0,83,0.00,,,0.00,58,Wunderground v.1.15,2013-04-17 12:36:00,
2013-04-17 07:38:00,36.2,31.5,30.37,ENE,59,4.0,6.0,83,0.00,,,0.00,65,Wunderground v.1.15,2013-04-17 12:38:00,
2013-04-17 07:40:00,36.2,31.5,30.37,East,90,4.0,5.0,83,0.00,,,0.00,67,Wunderground v.1.15,2013-04-17 12:40:00,
2013-04-17 07:44:00,36.3,31.6,30.36,ENE,76,4.0,5.0,83,0.00,,,0.00,65,Wunderground v.1.15,2013-04-17 12:44:00,
2013-04-17 07:47:00,36.4,31.7,30.36,ENE,64,3.0,8.0,83,0.00,,,0.00,70,Wunderground v.1.15,2013-04-17 12:47:00,
2013-04-17 07:48:00,36.4,32.0,30.37,NE,55,3.0,10.0,84,0.00,,,0.00,72,Wunderground v.1.15,2013-04-17 12:48:00,
2013-04-17 07:49:00,36.4,32.0,30.37,SSE,157,3.0,10.0,84,0.00,,,0.00,72,Wunderground v.1.15,2013-04-17 12:49:00,
2013-04-17 07:52:00,36.5,31.8,30.36,NNE,15,4.0,7.0,83,0.00,,,0.00,77,Wunderground v.1.15,2013-04-17 12:52:00,
2013-04-17 07:53:00,36.5,31.8,30.36,NNE,13,4.0,7.0,83,0.00,,,0.00,79,Wunderground v.1.15,2013-04-17 12:53:00,
2013-04-17 07:54:00,36.5,31.8,30.36,NE,48,4.0,7.0,83,0.00,,,0.00,79,Wunderground v.1.15,2013-04-17 12:54:00,
2013-04-17 07:55:00,36.5,31.8,30.36,NNE,22,4.0,7.0,83,0.00,,,0.00,79,Wunderground v.1.15,2013-04-17 12:55:00,
2013-04-17 07:57:00,36.6,31.9,30.36,East,83,5.0,7.0,83,0.00,,,0.00,81,Wunderground v.1.15,2013-04-17 12:57:00,
2013-04-17 07:59:00,36.7,32.0,30.36,NNE,13,5.0,7.0,83,0.00,,,0.00,84,Wunderground v.1.15,2013-04-17 12:59:00,
2013-04-17 08:01:00,36.7,32.0,30.35,North,5,5.0,9.0,83,0.00,,,0.00,88,Wunderground v.1.15,2013-04-17 13:01:00,
2013-04-17 08:03:00,36.8,32.1,30.35,NNE,29,5.0,9.0,83,0.00,,,0.00,91,Wunderground v.1.15,2013-04-17 13:03:00,
2013-04-17 08:04:00,36.8,32.1,30.35,NNE,15,5.0,9.0,83,0.00,,,0.00,91,Wunderground v.1.15,2013-04-17 13:04:00,
2013-04-17 08:06:00,36.9,32.2,30.34,NE,51,6.0,11.0,83,0.00,,,0.00,95,Wunderground v.1.15,2013-04-17 13:06:00,
2013-04-17 08:07:00,36.9,32.2,30.34,ENE,66,6.0,11.0,83,0.00,,,0.00,95,Wunderground v.1.15,2013-04-17 13:07:00,
2013-04-17 08:08:00,36.9,32.2,30.34,ENE,75,7.0,11.0,83,0.00,,,0.00,95,Wunderground v.1.15,2013-04-17 13:08:00,
2013-04-17 08:12:00,37.0,32.3,30.34,NE,46,7.0,11.0,83,0.00,,,0.00,97,Wunderground v.1.15,2013-04-17 13:12:00,
2013-04-17 08:13:00,37.1,32.4,30.34,NE,43,7.0,11.0,83,0.00,,,0.00,98,Wunderground v.1.15,2013-04-17 13:13:00,
2013-04-17 08:14:00,37.1,32.4,30.35,NE,50,7.0,11.0,83,0.00,,,0.00,98,Wunderground v.1.15,2013-04-17 13:14:00,
2013-04-17 08:16:00,37.2,32.5,30.34,NNE,29,6.0,11.0,83,0.00,,,0.00,100,Wunderground v.1.15,2013-04-17 13:16:00,
2013-04-17 08:18:00,37.3,32.6,30.34,North,360,5.0,11.0,83,0.00,,,0.00,102,Wunderground v.1.15,2013-04-17 13:18:00,
2013-04-17 08:19:00,37.4,32.7,30.35,NE,50,5.0,11.0,83,0.00,,,0.00,104,Wunderground v.1.15,2013-04-17 13:19:00,
2013-04-17 08:20:00,37.4,32.7,30.34,NE,51,5.0,6.0,83,0.00,,,0.00,105,Wunderground v.1.15,2013-04-17 13:20:00,
2013-04-17 08:21:00,37.4,32.7,30.34,NNE,30,5.0,7.0,83,0.00,,,0.00,105,Wunderground v.1.15,2013-04-17 13:21:00,
2013-04-17 08:22:00,37.4,32.7,30.34,NE,49,4.0,7.0,83,0.00,,,0.00,107,Wunderground v.1.15,2013-04-17 13:22:00,
2013-04-17 08:25:00,37.4,32.4,30.34,NE,37,5.0,11.0,82,0.00,,,0.00,114,Wunderground v.1.15,2013-04-17 13:25:00,
2013-04-17 08:28:00,37.5,32.5,30.34,NE,36,6.0,11.0,82,0.00,,,0.00,111,Wunderground v.1.15,2013-04-17 13:28:00,
2013-04-17 08:31:00,37.6,32.6,30.33,North,10,6.0,6.0,82,0.00,,,0.00,102,Wunderground v.1.15,2013-04-17 13:31:00,
2013-04-17 08:32:00,37.6,32.6,30.33,North,9,6.0,6.0,82,0.00,,,0.00,97,Wunderground v.1.15,2013-04-17 13:32:00,
2013-04-17 08:35:00,37.6,32.6,30.32,NNE,28,6.0,9.0,82,0.00,,,0.00,88,Wunderground v.1.15,2013-04-17 13:35:00,
2013-04-17 08:36:00,37.6,32.6,30.32,North,355,6.0,9.0,82,0.00,,,0.00,79,Wunderground v.1.15,2013-04-17 13:36:00,
2013-04-17 08:38:00,37.7,32.7,30.32,ENE,61,7.0,14.0,82,0.00,,,0.00,69,Wunderground v.1.15,2013-04-17 13:38:00,
2013-04-17 08:40:00,37.6,32.6,30.33,NNW,348,8.0,8.0,82,0.00,,,0.00,65,Wunderground v.1.15,2013-04-17 13:40:00,
2013-04-17 08:41:00,37.6,32.3,30.33,NNE,24,7.0,8.0,81,0.00,,,0.00,63,Wunderground v.1.15,2013-04-17 13:41:00,
2013-04-17 08:42:00,37.6,32.3,30.33,North,9,7.0,8.0,81,0.00,,,0.00,63,Wunderground v.1.15,2013-04-17 13:42:00,
2013-04-17 08:44:00,37.6,32.3,30.33,NNE,12,7.0,8.0,81,0.00,,,0.00,63,Wunderground v.1.15,2013-04-17 13:44:00,
2013-04-17 08:49:00,37.6,32.3,30.32,North,11,7.0,9.0,81,0.00,,,0.00,63,Wunderground v.1.15,2013-04-17 13:49:00,
2013-04-17 08:50:00,37.7,32.4,30.32,NE,53,7.0,7.0,81,0.00,,,0.00,69,Wunderground v.1.15,2013-04-17 13:50:00,
2013-04-17 08:51:00,37.6,32.3,30.31,North,5,7.0,11.0,81,0.00,,,0.00,74,Wunderground v.1.15,2013-04-17 13:51:00,
2013-04-17 08:54:00,37.7,32.4,30.31,North,5,7.0,11.0,81,0.00,,,0.00,65,Wunderground v.1.15,2013-04-17 13:54:00,
2013-04-17 08:55:00,37.6,32.3,30.31,NE,34,7.0,11.0,81,0.00,,,0.00,62,Wunderground v.1.15,2013-04-17 13:55:00,
2013-04-17 08:58:00,37.7,32.4,30.31,NNE,12,6.0,11.0,81,0.00,,,0.00,47,Wunderground v.1.15,2013-04-17 13:58:00,
2013-04-17 08:59:00,37.6,32.3,30.31,NE,43,6.0,11.0,81,0.00,,,0.00,46,Wunderground v.1.15,2013-04-17 13:59:00,
2013-04-17 09:01:00,37.7,32.4,30.30,NE,49,6.0,6.0,81,0.00,,,0.00,44,Wunderground v.1.15,2013-04-17 14:01:00,
2013-04-17 09:05:00,37.8,32.5,30.30,NE,44,4.0,6.0,81,0.00,,,0.00,56,Wunderground v.1.15,2013-04-17 14:05:00,
2013-04-17 09:07:00,37.9,32.6,30.30,NE,42,4.0,8.0,81,0.00,,,0.00,65,Wunderground v.1.15,2013-04-17 14:07:00,
2013-04-17 09:08:00,37.8,32.5,30.30,NE,42,4.0,8.0,81,0.00,,,0.00,69,Wunderground v.1.15,2013-04-17 14:08:00,
2013-04-17 09:10:00,37.9,32.3,30.29,NE,47,4.0,7.0,80,0.00,,,0.00,76,Wunderground v.1.15,2013-04-17 14:10:00,
2013-04-17 09:11:00,37.8,32.2,30.29,NNE,21,4.0,7.0,80,0.00,,,0.00,81,Wunderground v.1.15,2013-04-17 14:11:00,
2013-04-17 09:12:00,37.9,32.3,30.29,ENE,68,5.0,11.0,80,0.00,,,0.00,90,Wunderground v.1.15,2013-04-17 14:12:00,
2013-04-17 09:16:00,37.9,32.3,30.28,NE,53,7.0,11.0,80,0.00,,,0.00,132,Wunderground v.1.15,2013-04-17 14:16:00,
2013-04-17 09:17:00,38.0,32.4,30.28,ENE,63,6.0,11.0,80,0.00,,,0.00,139,Wunderground v.1.15,2013-04-17 14:17:00,
2013-04-17 09:18:00,38.1,32.5,30.28,East,86,6.0,11.0,80,0.00,,,0.00,146,Wunderground v.1.15,2013-04-17 14:18:00,
2013-04-17 09:20:00,38.2,32.3,30.27,East,89,6.0,10.0,79,0.00,,,0.00,149,Wunderground v.1.15,2013-04-17 14:20:00,
2013-04-17 09:22:00,38.3,32.4,30.27,ENE,65,6.0,10.0,79,0.00,,,0.00,153,Wunderground v.1.15,2013-04-17 14:22:00,
2013-04-17 09:24:00,38.3,32.0,30.26,NE,39,6.0,18.0,78,0.00,,,0.00,158,Wunderground v.1.15,2013-04-17 14:24:00,
2013-04-17 09:26:00,38.5,32.2,30.26,NE,49,6.0,18.0,78,0.00,,,0.00,163,Wunderground v.1.15,2013-04-17 14:26:00,
2013-04-17 09:28:00,38.7,32.7,30.27,NE,49,7.0,18.0,79,0.00,,,0.00,158,Wunderground v.1.15,2013-04-17 14:28:00,
2013-04-17 09:29:00,38.7,32.7,30.27,NE,49,7.0,18.0,79,0.00,,,0.00,158,Wunderground v.1.15,2013-04-17 14:29:00,
2013-04-17 09:30:00,38.8,32.5,30.28,NE,54,7.0,7.0,78,0.00,,,0.00,146,Wunderground v.1.15,2013-04-17 14:30:00,
2013-04-17 09:34:00,39.0,32.4,30.29,NE,49,5.0,10.0,77,0.00,,,0.00,118,Wunderground v.1.15,2013-04-17 14:34:00,
2013-04-17 09:35:00,39.0,32.4,30.28,East,87,5.0,10.0,77,0.00,,,0.00,123,Wunderground v.1.15,2013-04-17 14:35:00,
2013-04-17 09:37:00,39.0,32.4,30.28,NE,51,6.0,10.0,77,0.00,,,0.00,142,Wunderground v.1.15,2013-04-17 14:37:00,
2013-04-17 09:40:00,39.0,32.4,30.29,ENE,63,7.0,13.0,77,0.00,,,0.00,141,Wunderground v.1.15,2013-04-17 14:40:00,
2013-04-17 09:41:00,39.0,32.1,30.29,ENE,67,8.0,13.0,76,0.00,,,0.00,127,Wunderground v.1.15,2013-04-17 14:41:00,
2013-04-17 09:42:00,39.0,32.1,30.29,ENE,77,9.0,13.0,76,0.00,,,0.00,114,Wunderground v.1.15,2013-04-17 14:42:00,
2013-04-17 09:43:00,39.0,32.1,30.28,East,99,9.0,13.0,76,0.00,,,0.00,97,Wunderground v.1.15,2013-04-17 14:43:00,
2013-04-17 09:47:00,39.0,32.1,30.28,NE,55,8.0,13.0,76,0.00,,,0.00,77,Wunderground v.1.15,2013-04-17 14:47:00,
2013-04-17 09:49:00,39.0,32.1,30.29,NE,48,8.0,13.0,76,0.00,,,0.00,67,Wunderground v.1.15,2013-04-17 14:49:00,
2013-04-17 09:51:00,39.0,32.1,30.29,East,79,6.0,7.0,76,0.00,,,0.00,60,Wunderground v.1.15,2013-04-17 14:51:00,
2013-04-17 09:55:00,39.1,32.2,30.29,ESE,119,6.0,12.0,76,0.00,,,0.00,53,Wunderground v.1.15,2013-04-17 14:55:00,
2013-04-17 09:56:00,39.1,32.2,30.29,North,5,6.0,12.0,76,0.00,,,0.00,54,Wunderground v.1.15,2013-04-17 14:56:00,
2013-04-17 09:57:00,39.1,32.2,30.29,East,82,6.0,12.0,76,0.00,,,0.00,56,Wunderground v.1.15,2013-04-17 14:57:00,
2013-04-17 10:01:00,39.1,32.2,30.28,ENE,57,7.0,7.0,76,0.00,,,0.00,84,Wunderground v.1.15,2013-04-17 15:01:00,
2013-04-17 10:02:00,39.2,32.6,30.28,NE,53,7.0,12.0,77,0.00,,,0.00,86,Wunderground v.1.15,2013-04-17 15:02:00,
2013-04-17 10:03:00,39.2,32.3,30.27,NE,34,7.0,12.0,76,0.00,,,0.00,88,Wunderground v.1.15,2013-04-17 15:03:00,
2013-04-17 10:04:00,39.2,32.3,30.27,NE,44,7.0,12.0,76,0.00,,,0.00,86,Wunderground v.1.15,2013-04-17 15:04:00,
2013-04-17 10:06:00,39.2,32.3,30.27,North,5,8.0,12.0,76,0.00,,,0.00,83,Wunderground v.1.15,2013-04-17 15:06:00,
2013-04-17 10:09:00,39.2,32.3,30.27,NE,45,7.0,12.0,76,0.00,,,0.00,84,Wunderground v.1.15,2013-04-17 15:09:00,
2013-04-17 10:12:00,39.3,32.4,30.27,ENE,67,8.0,10.0,76,0.00,,,0.00,81,Wunderground v.1.15,2013-04-17 15:12:00,
2013-04-17 10:14:00,39.3,32.4,30.27,NE,49,8.0,11.0,76,0.00,,,0.00,77,Wunderground v.1.15,2013-04-17 15:14:00,
2013-04-17 10:15:00,39.4,32.5,30.27,ENE,66,8.0,11.0,76,0.00,,,0.00,79,Wunderground v.1.15,2013-04-17 15:15:00,
2013-04-17 10:16:00,39.4,32.5,30.27,ENE,62,8.0,11.0,76,0.00,,,0.00,79,Wunderground v.1.15,2013-04-17 15:16:00,
2013-04-17 10:17:00,39.4,32.5,30.27,NE,36,8.0,11.0,76,0.00,,,0.00,81,Wunderground v.1.15,2013-04-17 15:17:00,
2013-04-17 10:18:00,39.4,32.5,30.27,NE,46,8.0,11.0,76,0.00,,,0.00,77,Wunderground v.1.15,2013-04-17 15:18:00,
2013-04-17 10:19:00,39.5,32.2,30.27,NE,40,7.0,11.0,75,0.00,,,0.00,72,Wunderground v.1.15,2013-04-17 15:19:00,
2013-04-17 10:21:00,39.6,32.7,30.27,NNE,32,7.0,7.0,76,0.00,,,0.00,65,Wunderground v.1.15,2013-04-17 15:21:00,
2013-04-17 10:22:00,39.6,32.7,30.28,ENE,76,6.0,7.0,76,0.00,,,0.00,62,Wunderground v.1.15,2013-04-17 15:22:00,
2013-04-17 10:24:00,39.6,32.3,30.28,NNE,28,5.0,10.0,75,0.00,,,0.00,53,Wunderground v.1.15,2013-04-17 15:24:00,
2013-04-17 10:25:00,39.6,32.3,30.29,NE,55,6.0,10.0,75,0.00,,,0.00,51,Wunderground v.1.15,2013-04-17 15:25:00,
2013-04-17 10:27:00,39.7,32.4,30.29,NE,53,6.0,10.0,75,0.00,,,0.00,49,Wunderground v.1.15,2013-04-17 15:27:00,
2013-04-17 10:28:00,39.7,32.4,30.29,East,101,6.0,10.0,75,0.00,,,0.00,51,Wunderground v.1.15,2013-04-17 15:28:00,
2013-04-17 10:30:00,39.7,32.4,30.29,NE,51,5.0,8.0,75,0.00,,,0.00,62,Wunderground v.1.15,2013-04-17 15:30:00,
2013-04-17 10:31:00,39.7,32.4,30.29,ENE,63,5.0,8.0,75,0.00,,,0.00,65,Wunderground v.1.15,2013-04-17 15:31:00,
2013-04-17 10:33:00,39.8,32.5,30.29,East,84,5.0,8.0,75,0.00,,,0.00,74,Wunderground v.1.15,2013-04-17 15:33:00,
2013-04-17 10:34:00,39.8,32.5,30.30,ESE,119,5.0,8.0,75,0.00,,,0.00,79,Wunderground v.1.15,2013-04-17 15:34:00,
2013-04-17 10:36:00,39.9,32.6,30.30,East,94,5.0,8.0,75,0.00,,,0.00,86,Wunderground v.1.15,2013-04-17 15:36:00,
2013-04-17 10:37:00,39.9,32.6,30.30,SE,128,4.0,8.0,75,0.00,,,0.00,91,Wunderground v.1.15,2013-04-17 15:37:00,
2013-04-17 10:39:00,40.0,32.7,30.30,SE,128,4.0,8.0,75,0.00,,,0.00,88,Wunderground v.1.15,2013-04-17 15:39:00,
2013-04-17 10:40:00,40.0,32.7,30.30,ENE,76,4.0,4.0,75,0.00,,,0.00,88,Wunderground v.1.15,2013-04-17 15:40:00,
2013-04-17 10:43:00,40.1,32.8,30.30,ENE,64,4.0,5.0,75,0.00,,,0.00,93,Wunderground v.1.15,2013-04-17 15:43:00,
2013-04-17 10:45:00,40.2,32.6,30.29,East,89,4.0,7.0,74,0.00,,,0.00,97,Wunderground v.1.15,2013-04-17 15:45:00,
2013-04-17 10:46:00,40.2,32.6,30.29,East,92,4.0,7.0,74,0.00,,,0.00,98,Wunderground v.1.15,2013-04-17 15:46:00,
2013-04-17 10:47:00,40.2,32.6,30.30,ESE,103,4.0,7.0,74,0.00,,,0.00,98,Wunderground v.1.15,2013-04-17 15:47:00,
2013-04-17 10:51:00,40.3,32.7,30.30,NNE,32,4.0,4.0,74,0.00,,,0.00,98,Wunderground v.1.15,2013-04-17 15:51:00,
2013-04-17 10:52:00,40.3,32.7,30.30,ENE,67,4.0,4.0,74,0.00,,,0.00,98,Wunderground v.1.15,2013-04-17 15:52:00,
2013-04-17 10:53:00,40.4,32.8,30.30,ENE,69,4.0,4.0,74,0.00,,,0.00,97,Wunderground v.1.15,2013-04-17 15:53:00,
2013-04-17 10:54:00,40.4,32.8,30.30,East,85,4.0,4.0,74,0.00,,,0.00,93,Wunderground v.1.15,2013-04-17 15:54:00,
2013-04-17 10:55:00,40.5,32.9,30.30,ENE,58,4.0,4.0,74,0.00,,,0.00,90,Wunderground v.1.15,2013-04-17 15:55:00,
2013-04-17 10:59:00,40.5,32.9,30.29,NE,42,3.0,5.0,74,0.00,,,0.00,72,Wunderground v.1.15,2013-04-17 15:59:00,
2013-04-17 11:00:00,40.4,32.8,30.29,NE,44,3.0,3.0,74,0.00,,,0.00,69,Wunderground v.1.15,2013-04-17 16:00:00,
2013-04-17 11:02:00,40.5,32.9,30.29,NE,55,3.0,4.0,74,0.00,,,0.00,62,Wunderground v.1.15,2013-04-17 16:02:00,
2013-04-17 11:03:00,40.5,32.9,30.29,NE,51,3.0,4.0,74,0.00,,,0.00,58,Wunderground v.1.15,2013-04-17 16:03:00,
2013-04-17 11:05:00,40.5,32.9,30.29,East,79,3.0,7.0,74,0.00,,,0.00,53,Wunderground v.1.15,2013-04-17 16:05:00,
2013-04-17 11:06:00,40.5,32.9,30.29,ENE,70,3.0,7.0,74,0.00,,,0.00,51,Wunderground v.1.15,2013-04-17 16:06:00,
2013-04-17 11:07:00,40.6,33.0,30.29,ENE,74,4.0,7.0,74,0.00,,,0.00,51,Wunderground v.1.15,2013-04-17 16:07:00,
2013-04-17 11:09:00,40.6,32.6,30.29,ENE,63,4.0,7.0,73,0.00,,,0.00,56,Wunderground v.1.15,2013-04-17 16:09:00,
2013-04-17 11:10:00,40.6,32.6,30.29,ENE,78,4.0,4.0,73,0.00,,,0.00,58,Wunderground v.1.15,2013-04-17 16:10:00,
2013-04-17 11:13:00,40.5,32.5,30.29,SE,129,5.0,8.0,73,0.00,,,0.00,47,Wunderground v.1.15,2013-04-17 16:13:00,
2013-04-17 11:14:00,40.6,32.6,30.30,NNE,32,5.0,8.0,73,0.00,,,0.00,46,Wunderground v.1.15,2013-04-17 16:14:00,
2013-04-17 11:15:00,40.6,32.6,30.30,ENE,72,5.0,10.0,73,0.00,,,0.00,44,Wunderground v.1.15,2013-04-17 16:15:00,
2013-04-17 11:16:00,40.6,32.6,30.30,NE,51,6.0,10.0,73,0.00,,,0.00,44,Wunderground v.1.15,2013-04-17 16:16:00,
2013-04-17 11:18:00,40.5,32.5,30.29,East,79,6.0,10.0,73,0.00,,,0.00,42,Wunderground v.1.15,2013-04-17 16:18:00,
2013-04-17 11:22:00,40.5,32.9,30.29,NNE,15,6.0,6.0,74,0.00,,,0.00,40,Wunderground v.1.15,2013-04-17 16:22:00,
2013-04-17 11:23:00,40.5,32.9,30.29,NE,40,6.0,9.0,74,0.00,,,0.00,39,Wunderground v.1.15,2013-04-17 16:23:00,
2013-04-17 11:27:00,40.5,33.2,30.29,ENE,78,5.0,9.0,75,0.00,,,0.00,39,Wunderground v.1.15,2013-04-17 16:27:00,
2013-04-17 11:31:00,40.4,33.1,30.29,NE,47,5.0,7.0,75,0.00,,,0.00,35,Wunderground v.1.15,2013-04-17 16:31:00,
2013-04-17 11:32:00,40.4,33.1,30.29,NNE,19,5.0,7.0,75,0.00,,,0.00,35,Wunderground v.1.15,2013-04-17 16:32:00,
2013-04-17 11:34:00,40.4,33.4,30.29,ENE,57,5.0,7.0,76,0.00,,,0.00,35,Wunderground v.1.15,2013-04-17 16:34:00,
2013-04-17 11:37:00,40.3,33.3,30.28,ENE,61,6.0,7.0,76,0.00,,,0.00,32,Wunderground v.1.15,2013-04-17 16:37:00,
2013-04-17 11:38:00,40.2,33.2,30.28,ENE,74,5.0,7.0,76,0.00,,,0.00,30,Wunderground v.1.15,2013-04-17 16:38:00,
2013-04-17 11:39:00,40.2,33.2,30.28,NE,34,5.0,7.0,76,0.00,,,0.00,30,Wunderground v.1.15,2013-04-17 16:39:00,
2013-04-17 11:41:00,40.1,33.5,30.28,NNE,21,5.0,5.0,77,0.00,,,0.00,32,Wunderground v.1.15,2013-04-17 16:41:00,
2013-04-17 11:43:00,40.0,33.4,30.28,NE,39,4.0,6.0,77,0.00,,,0.00,30,Wunderground v.1.15,2013-04-17 16:43:00,
2013-04-17 11:44:00,40.0,33.4,30.28,NNE,30,4.0,6.0,77,0.00,,,0.00,28,Wunderground v.1.15,2013-04-17 16:44:00,
2013-04-17 11:48:00,39.8,33.5,30.27,NNE,13,4.0,7.0,78,0.00,,,0.00,26,Wunderground v.1.15,2013-04-17 16:48:00,
2013-04-17 11:49:00,39.8,33.5,30.27,NNE,15,5.0,7.0,78,0.00,,,0.00,26,Wunderground v.1.15,2013-04-17 16:49:00,
2013-04-17 11:50:00,39.8,33.5,30.26,NNE,25,5.0,5.0,78,0.00,,,0.01,26,Wunderground v.1.15,2013-04-17 16:50:00,
2013-04-17 11:54:00,39.6,33.6,30.25,NE,34,5.0,6.0,79,0.00,,,0.01,25,Wunderground v.1.15,2013-04-17 16:54:00,
2013-04-17 11:55:00,39.6,33.9,30.25,NNE,25,5.0,8.0,80,0.00,,,0.01,25,Wunderground v.1.15,2013-04-17 16:55:00,
2013-04-17 11:56:00,39.5,33.8,30.25,North,5,5.0,8.0,80,0.00,,,0.01,25,Wunderground v.1.15,2013-04-17 16:56:00,
2013-04-17 11:57:00,39.5,33.8,30.25,NNE,22,5.0,8.0,80,0.00,,,0.01,25,Wunderground v.1.15,2013-04-17 16:57:00,
2013-04-17 11:58:00,39.5,33.8,30.25,NNE,12,5.0,8.0,80,0.00,,,0.01,25,Wunderground v.1.15,2013-04-17 16:58:00,
2013-04-17 12:02:00,39.3,34.0,30.25,North,5,5.0,5.0,81,0.05,,,0.02,26,Wunderground v.1.15,2013-04-17 17:02:00,
2013-04-17 12:03:00,39.3,34.0,30.25,NNE,15,4.0,5.0,81,0.05,,,0.02,26,Wunderground v.1.15,2013-04-17 17:03:00,
2013-04-17 12:06:00,39.2,34.2,30.25,NNE,22,3.0,5.0,82,0.05,,,0.02,26,Wunderground v.1.15,2013-04-17 17:06:00,
2013-04-17 12:08:00,39.1,34.1,30.25,NNE,15,3.0,5.0,82,0.05,,,0.02,25,Wunderground v.1.15,2013-04-17 17:08:00,
2013-04-17 12:09:00,39.1,34.1,30.25,NNW,342,3.0,5.0,82,0.05,,,0.02,25,Wunderground v.1.15,2013-04-17 17:09:00,
2013-04-17 12:11:00,39.0,34.3,30.25,NNW,330,3.0,3.0,83,0.05,,,0.02,23,Wunderground v.1.15,2013-04-17 17:11:00,
2013-04-17 12:14:00,38.9,34.2,30.25,North,355,3.0,5.0,83,0.05,,,0.03,21,Wunderground v.1.15,2013-04-17 17:14:00,
2013-04-17 12:15:00,38.9,34.2,30.25,North,355,3.0,5.0,83,0.05,,,0.03,21,Wunderground v.1.15,2013-04-17 17:15:00,
2013-04-17 12:16:00,38.9,34.2,30.25,North,355,3.0,5.0,83,0.05,,,0.03,21,Wunderground v.1.15,2013-04-17 17:16:00,
2013-04-17 12:17:00,38.9,34.2,30.25,North,355,3.0,5.0,83,0.05,,,0.03,21,Wunderground v.1.15,2013-04-17 17:17:00,
2013-04-17 12:20:00,38.8,34.4,30.25,NNE,23,3.0,5.0,84,0.05,,,0.03,23,Wunderground v.1.15,2013-04-17 17:20:00,
2013-04-17 12:21:00,38.8,34.4,30.25,North,5,3.0,5.0,84,0.07,,,0.04,23,Wunderground v.1.15,2013-04-17 17:21:00,
2013-04-17 12:22:00,38.8,34.4,30.25,NE,40,3.0,5.0,84,0.07,,,0.04,21,Wunderground v.1.15,2013-04-17 17:22:00,
2013-04-17 12:24:00,38.7,35.7,30.25,North,360,3.0,5.0,89,0.07,,,0.04,19,Wunderground v.1.15,2013-04-17 17:24:00,
2013-04-17 12:26:00,38.7,34.3,30.25,North,360,2.0,5.0,84,0.12,,,0.05,19,Wunderground v.1.15,2013-04-17 17:26:00,
2013-04-17 12:28:00,38.7,34.6,30.25,North,360,3.0,5.0,85,0.12,,,0.05,19,Wunderground v.1.15,2013-04-17 17:28:00,
2013-04-17 12:29:00,38.6,34.5,30.25,North,360,3.0,5.0,85,0.12,,,0.05,19,Wunderground v.1.15,2013-04-17 17:29:00,
2013-04-17 12:31:00,38.6,34.5,30.25,NNW,344,3.0,3.0,85,0.14,,,0.06,19,Wunderground v.1.15,2013-04-17 17:31:00,
2013-04-17 12:34:00,38.5,34.4,30.25,NW,309,3.0,5.0,85,0.14,,,0.07,21,Wunderground v.1.15,2013-04-17 17:34:00,
2013-04-17 12:35:00,38.5,34.4,30.25,NNE,13,3.0,5.0,85,0.14,,,0.07,23,Wunderground v.1.15,2013-04-17 17:35:00,
2013-04-17 12:37:00,38.4,34.3,30.25,NNW,340,3.0,5.0,85,0.14,,,0.07,23,Wunderground v.1.15,2013-04-17 17:37:00,
2013-04-17 12:38:00,38.4,34.6,30.26,NNW,340,3.0,5.0,86,0.14,,,0.07,23,Wunderground v.1.15,2013-04-17 17:38:00,
2013-04-17 12:41:00,38.5,34.7,30.26,NNW,339,3.0,3.0,86,0.12,,,0.08,23,Wunderground v.1.15,2013-04-17 17:41:00,
2013-04-17 12:42:00,38.5,34.7,30.26,NNW,339,2.0,3.0,86,0.12,,,0.08,23,Wunderground v.1.15,2013-04-17 17:42:00,
2013-04-17 12:44:00,38.4,34.6,30.27,NNW,339,2.0,3.0,86,0.14,,,0.09,25,Wunderground v.1.15,2013-04-17 17:44:00,
2013-04-17 12:46:00,38.4,34.9,30.27,NNW,339,2.0,3.0,87,0.14,,,0.09,28,Wunderground v.1.15,2013-04-17 17:46:00,
2013-04-17 12:47:00,38.4,34.9,30.27,NNW,339,1.0,3.0,87,0.21,,,0.10,30,Wunderground v.1.15,2013-04-17 17:47:00,
2013-04-17 12:48:00,38.3,34.8,30.27,NNW,339,1.0,3.0,87,0.21,,,0.10,32,Wunderground v.1.15,2013-04-17 17:48:00,
2013-04-17 12:52:00,38.3,34.8,30.28,NNW,339,1.0,1.0,87,0.25,,,0.12,30,Wunderground v.1.15,2013-04-17 17:52:00,
2013-04-17 12:54:00,38.3,34.8,30.28,NNW,339,1.0,1.0,87,0.24,,,0.12,26,Wunderground v.1.15,2013-04-17 17:54:00,
2013-04-17 12:55:00,38.3,34.8,30.29,NNW,339,1.0,1.0,87,0.24,,,0.13,28,Wunderground v.1.15,2013-04-17 17:55:00,
2013-04-17 12:59:00,38.2,35.0,30.29,NNW,339,0.0,1.0,88,0.22,,,0.15,33,Wunderground v.1.15,2013-04-17 17:59:00,
2013-04-17 13:00:00,38.2,35.0,30.29,NNW,339,0.0,0.0,88,0.22,,,0.15,35,Wunderground v.1.15,2013-04-17 18:00:00,
2013-04-17 13:02:00,38.2,35.0,30.29,NNW,339,0.0,0.0,88,0.25,,,0.16,35,Wunderground v.1.15,2013-04-17 18:02:00,
2013-04-17 13:03:00,38.2,35.0,30.29,NNW,339,0.0,0.0,88,0.25,,,0.16,35,Wunderground v.1.15,2013-04-17 18:03:00,
2013-04-17 13:04:00,38.2,35.0,30.29,NNW,339,0.0,0.0,88,0.26,,,0.17,33,Wunderground v.1.15,2013-04-17 18:04:00,
2013-04-17 13:07:00,38.0,35.0,30.29,NNW,339,0.0,0.0,89,0.30,,,0.18,35,Wunderground v.1.15,2013-04-17 18:07:00,
2013-04-17 13:08:00,38.0,35.0,30.29,NNW,339,0.0,0.0,89,0.23,,,0.19,39,Wunderground v.1.15,2013-04-17 18:08:00,
2013-04-17 13:09:00,38.0,35.0,30.29,NNW,339,0.0,1.0,89,0.23,,,0.19,40,Wunderground v.1.15,2013-04-17 18:09:00,
2013-04-17 13:10:00,38.0,35.0,30.29,NNW,339,0.0,0.0,89,0.23,,,0.19,40,Wunderground v.1.15,2013-04-17 18:10:00,
2013-04-17 13:11:00,38.0,35.0,30.29,NNW,339,0.0,0.0,89,0.25,,,0.20,42,Wunderground v.1.15,2013-04-17 18:11:00,
2013-04-17 13:12:00,38.0,35.0,30.29,NNW,339,0.0,0.0,89,0.25,,,0.20,42,Wunderground v.1.15,2013-04-17 18:12:00,
2013-04-17 13:15:00,38.0,35.3,30.29,NNW,339,0.0,0.0,90,0.16,,,0.21,39,Wunderground v.1.15,2013-04-17 18:15:00,
2013-04-17 13:18:00,37.9,35.2,30.29,NNW,339,0.0,1.0,90,0.14,,,0.21,35,Wunderground v.1.15,2013-04-17 18:18:00,
2013-04-17 13:19:00,37.9,35.2,30.28,NNW,339,0.0,1.0,90,0.12,,,0.21,35,Wunderground v.1.15,2013-04-17 18:19:00,
2013-04-17 13:20:00,37.9,35.2,30.28,NNW,339,0.0,0.0,90,0.11,,,0.22,39,Wunderground v.1.15,2013-04-17 18:20:00,
2013-04-17 13:23:00,38.0,35.3,30.28,NNW,339,0.0,3.0,90,0.11,,,0.22,47,Wunderground v.1.15,2013-04-17 18:23:00,
2013-04-17 13:24:00,37.9,35.5,30.27,NNW,339,1.0,3.0,91,0.11,,,0.22,54,Wunderground v.1.15,2013-04-17 18:24:00,
2013-04-17 13:26:00,38.0,35.6,30.27,NNW,339,1.0,3.0,91,0.10,,,0.23,63,Wunderground v.1.15,2013-04-17 18:26:00,
2013-04-17 13:27:00,37.9,35.5,30.27,NNW,339,1.0,3.0,91,0.10,,,0.23,65,Wunderground v.1.15,2013-04-17 18:27:00,
2013-04-17 13:31:00,37.9,35.5,30.26,NNE,32,2.0,5.0,91,0.14,,,0.24,77,Wunderground v.1.15,2013-04-17 18:31:00,
2013-04-17 13:32:00,37.9,35.5,30.26,NNE,22,2.0,5.0,91,0.14,,,0.24,81,Wunderground v.1.15,2013-04-17 18:32:00,
2013-04-17 13:33:00,37.9,35.5,30.26,NNE,19,2.0,5.0,91,0.14,,,0.24,84,Wunderground v.1.15,2013-04-17 18:33:00,
2013-04-17 13:36:00,37.9,35.5,30.26,ENE,59,2.0,5.0,91,0.13,,,0.25,88,Wunderground v.1.15,2013-04-17 18:36:00,
2013-04-17 13:38:00,37.9,35.5,30.25,NE,34,3.0,7.0,91,0.13,,,0.25,97,Wunderground v.1.15,2013-04-17 18:38:00,
2013-04-17 13:41:00,37.9,35.5,30.24,NE,40,4.0,6.0,91,0.14,,,0.26,118,Wunderground v.1.15,2013-04-17 18:41:00,
2013-04-17 13:44:00,37.9,35.5,30.24,NE,53,5.0,8.0,91,0.12,,,0.26,146,Wunderground v.1.15,2013-04-17 18:44:00,
2013-04-17 13:45:00,37.9,35.5,30.23,NE,35,5.0,8.0,91,0.10,,,0.26,155,Wunderground v.1.15,2013-04-17 18:45:00,
2013-04-17 13:46:00,37.9,35.5,30.23,North,355,5.0,8.0,91,0.08,,,0.26,165,Wunderground v.1.15,2013-04-17 18:46:00,
2013-04-17 13:48:00,37.9,35.5,30.22,NE,38,6.0,8.0,91,0.08,,,0.27,195,Wunderground v.1.15,2013-04-17 18:48:00,
2013-04-17 13:49:00,37.9,35.5,30.22,North,9,6.0,8.0,91,0.08,,,0.27,209,Wunderground v.1.15,2013-04-17 18:49:00,
2013-04-17 13:51:00,38.1,36.0,30.21,ENE,60,6.0,6.0,92,0.08,,,0.27,237,Wunderground v.1.15,2013-04-17 18:51:00,
2013-04-17 13:52:00,38.2,36.1,30.21,NNE,28,6.0,6.0,92,0.08,,,0.27,255,Wunderground v.1.15,2013-04-17 18:52:00,
2013-04-17 13:53:00,38.2,36.1,30.21,NNE,24,6.0,6.0,92,0.08,,,0.27,294,Wunderground v.1.15,2013-04-17 18:53:00,
2013-04-17 13:54:00,38.2,36.1,30.21,NE,55,6.0,8.0,92,0.08,,,0.27,294,Wunderground v.1.15,2013-04-17 18:54:00,
2013-04-17 13:59:00,38.6,36.5,30.20,NNE,26,5.0,8.0,92,0.05,,,0.28,381,Wunderground v.1.15,2013-04-17 18:59:00,
2013-04-17 14:00:00,38.7,36.6,30.20,NE,54,5.0,5.0,92,0.05,,,0.28,418,Wunderground v.1.15,2013-04-17 19:00:00,
2013-04-17 14:01:00,38.7,36.6,30.19,NE,43,5.0,5.0,92,0.05,,,0.28,418,Wunderground v.1.15,2013-04-17 19:01:00,
2013-04-17 14:03:00,39.1,37.0,30.19,ENE,67,6.0,12.0,92,0.05,,,0.28,367,Wunderground v.1.15,2013-04-17 19:03:00,
2013-04-17 14:06:00,39.1,36.7,30.17,NNE,21,6.0,13.0,91,0.05,,,0.28,309,Wunderground v.1.15,2013-04-17 19:06:00,
2013-04-17 14:09:00,39.0,36.6,30.12,NE,49,9.0,17.0,91,0.05,,,0.28,306,Wunderground v.1.15,2013-04-17 19:09:00,
2013-04-17 14:10:00,38.9,36.5,30.12,NE,34,11.0,11.0,91,0.05,,,0.28,406,Wunderground v.1.15,2013-04-17 19:10:00,
2013-04-17 14:11:00,38.8,36.4,30.08,NE,38,12.0,30.0,91,0.04,,,0.28,439,Wunderground v.1.15,2013-04-17 19:11:00,
2013-04-17 14:14:00,38.8,36.1,30.06,NE,51,17.0,30.0,90,0.04,,,0.28,541,Wunderground v.1.15,2013-04-17 19:14:00,
2013-04-17 14:15:00,38.8,36.4,30.05,NE,55,17.0,30.0,91,0.00,,,0.28,536,Wunderground v.1.15,2013-04-17 19:15:00,
2013-04-17 14:16:00,38.9,36.2,30.05,ENE,77,18.0,30.0,90,0.00,,,0.28,533,Wunderground v.1.15,2013-04-17 19:16:00,
2013-04-17 14:17:00,38.9,36.2,30.05,ENE,73,19.0,30.0,90,0.00,,,0.28,536,Wunderground v.1.15,2013-04-17 19:17:00,
2013-04-17 14:21:00,39.1,36.4,30.07,NE,36,18.0,19.0,90,0.00,,,0.28,515,Wunderground v.1.15,2013-04-17 19:21:00,
2013-04-17 14:22:00,39.2,36.5,30.08,ENE,76,16.0,19.0,90,0.00,,,0.28,534,Wunderground v.1.15,2013-04-17 19:22:00,
2013-04-17 14:23:00,39.4,37.0,30.08,East,96,14.0,19.0,91,0.00,,,0.28,496,Wunderground v.1.15,2013-04-17 19:23:00,
2013-04-17 14:27:00,39.5,36.8,30.12,SE,140,13.0,21.0,90,0.00,,,0.28,287,Wunderground v.1.15,2013-04-17 19:27:00,
2013-04-17 14:30:00,39.6,36.6,30.13,ENE,70,9.0,9.0,89,0.00,,,0.28,142,Wunderground v.1.15,2013-04-17 19:30:00,
2013-04-17 14:31:00,39.6,36.6,30.13,NNW,331,9.0,9.0,89,0.00,,,0.28,130,Wunderground v.1.15,2013-04-17 19:31:00,
2013-04-17 14:32:00,39.6,36.6,30.13,SW,236,9.0,9.0,89,0.00,,,0.28,107,Wunderground v.1.15,2013-04-17 19:32:00,
2013-04-17 14:36:00,39.6,36.3,30.15,NNE,31,6.0,10.0,88,0.00,,,0.28,84,Wunderground v.1.15,2013-04-17 19:36:00,
2013-04-17 14:37:00,39.6,36.3,30.16,NNE,17,5.0,10.0,88,0.00,,,0.28,81,Wunderground v.1.15,2013-04-17 19:37:00,
2013-04-17 14:38:00,39.6,36.3,30.15,North,9,5.0,10.0,88,0.00,,,0.28,86,Wunderground v.1.15,2013-04-17 19:38:00,
2013-04-17 14:41:00,39.7,36.4,30.14,NNE,30,6.0,6.0,88,0.00,,,0.28,81,Wunderground v.1.15,2013-04-17 19:41:00,
2013-04-17 14:42:00,39.7,36.4,30.14,NE,44,5.0,8.0,88,0.00,,,0.28,81,Wunderground v.1.15,2013-04-17 19:42:00,
2013-04-17 14:43:00,39.6,36.3,30.14,NE,55,7.0,15.0,88,0.00,,,0.28,81,Wunderground v.1.15,2013-04-17 19:43:00,
2013-04-17 14:46:00,39.4,35.9,30.12,NE,44,8.0,15.0,87,0.00,,,0.28,74,Wunderground v.1.15,2013-04-17 19:46:00,
2013-04-17 14:47:00,39.4,35.9,30.12,ENE,62,9.0,15.0,87,0.00,,,0.28,70,Wunderground v.1.15,2013-04-17 19:47:00,
2013-04-17 14:49:00,39.2,35.7,30.12,East,90,12.0,18.0,87,0.00,,,0.28,81,Wunderground v.1.15,2013-04-17 19:49:00,
2013-04-17 14:50:00,39.1,35.6,30.12,NE,45,13.0,13.0,87,0.00,,,0.28,88,Wunderground v.1.15,2013-04-17 19:50:00,
2013-04-17 14:53:00,39.1,35.6,30.11,NE,42,13.0,13.0,87,0.00,,,0.28,116,Wunderground v.1.15,2013-04-17 19:53:00,
2013-04-17 14:55:00,39.1,35.6,30.11,ENE,59,12.0,18.0,87,0.00,,,0.28,98,Wunderground v.1.15,2013-04-17 19:55:00,
2013-04-17 14:56:00,39.0,35.5,30.11,East,84,13.0,18.0,87,0.00,,,0.28,104,Wunderground v.1.15,2013-04-17 19:56:00,
2013-04-17 14:58:00,39.1,35.6,30.11,ENE,68,11.0,18.0,87,0.00,,,0.28,111,Wunderground v.1.15,2013-04-17 19:58:00,
2013-04-17 15:01:00,39.1,35.6,30.10,NE,49,9.0,14.0,87,0.00,,,0.28,123,Wunderground v.1.15,2013-04-17 20:01:00,
2013-04-17 15:02:00,39.1,35.6,30.10,NE,55,10.0,14.0,87,0.00,,,0.28,134,Wunderground v.1.15,2013-04-17 20:02:00,
2013-04-17 15:04:00,39.0,35.5,30.10,North,10,10.0,14.0,87,0.00,,,0.28,127,Wunderground v.1.15,2013-04-17 20:04:00,
2013-04-17 15:05:00,39.1,35.6,30.11,NE,53,10.0,14.0,87,0.00,,,0.28,107,Wunderground v.1.15,2013-04-17 20:05:00,
2013-04-17 15:08:00,39.2,35.7,30.12,ESE,123,9.0,14.0,87,0.00,,,0.28,91,Wunderground v.1.15,2013-04-17 20:08:00,
2013-04-17 15:09:00,39.2,35.7,30.12,NNE,18,9.0,14.0,87,0.00,,,0.28,93,Wunderground v.1.15,2013-04-17 20:09:00,
2013-04-17 15:13:00,39.3,35.8,30.13,NNE,33,7.0,10.0,87,0.00,,,0.28,93,Wunderground v.1.15,2013-04-17 20:13:00,
2013-04-17 15:15:00,39.2,35.7,30.14,ENE,65,8.0,14.0,87,0.00,,,0.28,91,Wunderground v.1.15,2013-04-17 20:15:00,
2013-04-17 15:18:00,39.2,35.7,30.15,NE,35,9.0,22.0,87,0.00,,,0.28,81,Wunderground v.1.15,2013-04-17 20:18:00,
2013-04-17 15:19:00,39.2,35.7,30.15,East,80,11.0,22.0,87,0.00,,,0.28,77,Wunderground v.1.15,2013-04-17 20:19:00,
2013-04-17 15:21:00,39.2,35.7,30.14,NE,49,11.0,11.0,87,0.00,,,0.28,86,Wunderground v.1.15,2013-04-17 20:21:00,
2013-04-17 15:24:00,39.3,35.8,30.14,NE,47,10.0,11.0,87,0.00,,,0.28,88,Wunderground v.1.15,2013-04-17 20:24:00,
2013-04-17 15:25:00,39.3,35.8,30.14,NE,48,9.0,11.0,87,0.00,,,0.28,84,Wunderground v.1.15,2013-04-17 20:25:00,
2013-04-17 15:28:00,39.2,35.7,30.13,ENE,69,8.0,11.0,87,0.00,,,0.28,91,Wunderground v.1.15,2013-04-17 20:28:00,
2013-04-17 15:30:00,39.3,35.8,30.13,NE,56,7.0,7.0,87,0.00,,,0.28,84,Wunderground v.1.15,2013-04-17 20:30:00,
2013-04-17 15:31:00,39.3,35.8,30.13,ENE,57,6.0,7.0,87,0.00,,,0.28,88,Wunderground v.1.15,2013-04-17 20:31:00,
2013-04-17 15:33:00,39.3,35.8,30.13,East,81,6.0,8.0,87,0.00,,,0.28,83,Wunderground v.1.15,2013-04-17 20:33:00,
2013-04-17 15:35:00,39.3,35.8,30.13,NE,56,7.0,12.0,87,0.00,,,0.28,84,Wunderground v.1.15,2013-04-17 20:35:00,
2013-04-17 15:36:00,39.3,35.8,30.12,ENE,76,7.0,12.0,87,0.00,,,0.28,83,Wunderground v.1.15,2013-04-17 20:36:00,
2013-04-17 15:38:00,39.2,35.7,30.12,SE,130,8.0,14.0,87,0.00,,,0.28,83,Wunderground v.1.15,2013-04-17 20:38:00,
2013-04-17 15:39:00,39.2,35.7,30.11,NNE,12,8.0,14.0,87,0.00,,,0.28,83,Wunderground v.1.15,2013-04-17 20:39:00,
2013-04-17 15:40:00,39.2,35.7,30.12,ENE,63,9.0,9.0,87,0.00,,,0.28,84,Wunderground v.1.15,2013-04-17 20:40:00,
2013-04-17 15:42:00,39.2,35.7,30.11,NE,56,11.0,12.0,87,0.00,,,0.28,86,Wunderground v.1.15,2013-04-17 20:42:00,
2013-04-17 15:43:00,39.1,35.6,30.11,ENE,59,11.0,15.0,87,0.00,,,0.28,83,Wunderground v.1.15,2013-04-17 20:43:00,
2013-04-17 15:46:00,39.1,35.6,30.12,SSW,213,11.0,15.0,87,0.00,,,0.28,81,Wunderground v.1.15,2013-04-17 20:46:00,
2013-04-17 15:47:00,39.1,35.6,30.11,ENE,57,11.0,15.0,87,0.00,,,0.28,77,Wunderground v.1.15,2013-04-17 20:47:00,
2013-04-17 15:49:00,39.2,35.7,30.11,NE,49,10.0,15.0,87,0.00,,,0.28,86,Wunderground v.1.15,2013-04-17 20:49:00,
2013-04-17 15:50:00,39.2,35.7,30.11,NNE,24,10.0,10.0,87,0.00,,,0.28,81,Wunderground v.1.15,2013-04-17 20:50:00,
2013-04-17 15:51:00,39.2,35.7,30.11,NE,44,10.0,10.0,87,0.00,,,0.28,79,Wunderground v.1.15,2013-04-17 20:51:00,
2013-04-17 15:52:00,39.2,35.7,30.11,NE,55,10.0,16.0,87,0.00,,,0.28,83,Wunderground v.1.15,2013-04-17 20:52:00,
2013-04-17 15:54:00,39.2,35.7,30.11,NE,35,9.0,16.0,87,0.00,,,0.28,77,Wunderground v.1.15,2013-04-17 20:54:00,
2013-04-17 15:56:00,39.2,35.7,30.11,NE,38,9.0,16.0,87,0.00,,,0.28,81,Wunderground v.1.15,2013-04-17 20:56:00,
2013-04-17 15:57:00,39.2,35.7,30.11,ENE,76,9.0,16.0,87,0.00,,,0.28,74,Wunderground v.1.15,2013-04-17 20:57:00,
2013-04-17 15:58:00,39.2,35.7,30.11,NE,55,8.0,16.0,87,0.00,,,0.28,76,Wunderground v.1.15,2013-04-17 20:58:00,
2013-04-17 16:02:00,39.3,36.0,30.11,NNE,17,6.0,9.0,88,0.00,,,0.28,70,Wunderground v.1.15,2013-04-17 21:02:00,
2013-04-17 16:03:00,39.3,36.0,30.11,East,101,5.0,9.0,88,0.00,,,0.28,69,Wunderground v.1.15,2013-04-17 21:03:00,
2013-04-17 16:07:00,39.4,36.1,30.11,NE,54,5.0,9.0,88,0.00,,,0.28,74,Wunderground v.1.15,2013-04-17 21:07:00,
2013-04-17 16:09:00,39.4,35.9,30.10,NE,53,6.0,12.0,87,0.00,,,0.28,76,Wunderground v.1.15,2013-04-17 21:09:00,
2013-04-17 16:11:00,39.3,36.0,30.10,NE,53,7.0,10.0,88,0.00,,,0.28,77,Wunderground v.1.15,2013-04-17 21:11:00,
2013-04-17 16:15:00,39.4,36.1,30.10,NNE,17,7.0,10.0,88,0.00,,,0.28,72,Wunderground v.1.15,2013-04-17 21:15:00,
2013-04-17 16:17:00,39.4,36.1,30.11,NE,47,7.0,10.0,88,0.00,,,0.28,72,Wunderground v.1.15,2013-04-17 21:17:00,
2013-04-17 16:18:00,39.4,35.9,30.11,ENE,74,7.0,10.0,87,0.00,,,0.28,72,Wunderground v.1.15,2013-04-17 21:18:00,
2013-04-17 16:19:00,39.4,35.9,30.12,NE,50,7.0,10.0,87,0.00,,,0.28,69,Wunderground v.1.15,2013-04-17 21:19:00,
2013-04-17 16:21:00,39.4,35.9,30.13,SE,137,7.0,7.0,87,0.00,,,0.28,63,Wunderground v.1.15,2013-04-17 21:21:00,
2013-04-17 16:23:00,39.5,36.2,30.13,ENE,78,7.0,7.0,88,0.00,,,0.28,60,Wunderground v.1.15,2013-04-17 21:23:00,
2013-04-17 16:24:00,39.5,36.2,30.13,ENE,71,8.0,8.0,88,0.00,,,0.28,58,Wunderground v.1.15,2013-04-17 21:24:00,
2013-04-17 16:26:00,39.6,36.3,30.13,ESE,107,7.0,8.0,88,0.00,,,0.28,58,Wunderground v.1.15,2013-04-17 21:26:00,
2013-04-17 16:29:00,39.6,36.3,30.13,ENE,65,7.0,8.0,88,0.00,,,0.28,62,Wunderground v.1.15,2013-04-17 21:29:00,
2013-04-17 16:31:00,39.6,36.3,30.12,NE,55,6.0,6.0,88,0.00,,,0.28,60,Wunderground v.1.15,2013-04-17 21:31:00,
2013-04-17 16:32:00,39.7,36.4,30.12,East,100,6.0,7.0,88,0.00,,,0.28,58,Wunderground v.1.15,2013-04-17 21:32:00,
2013-04-17 16:34:00,39.7,36.4,30.12,NE,51,5.0,7.0,88,0.00,,,0.28,65,Wunderground v.1.15,2013-04-17 21:34:00,
2013-04-17 16:35:00,39.7,36.4,30.12,NE,49,5.0,7.0,88,0.00,,,0.28,65,Wunderground v.1.15,2013-04-17 21:35:00,
2013-04-17 16:37:00,39.7,36.4,30.12,ESE,119,5.0,9.0,88,0.00,,,0.28,62,Wunderground v.1.15,2013-04-17 21:37:00,
2013-04-17 16:39:00,39.7,36.4,30.12,NE,44,5.0,9.0,88,0.00,,,0.28,56,Wunderground v.1.15,2013-04-17 21:39:00,
2013-04-17 16:40:00,39.7,36.4,30.12,ENE,66,5.0,11.0,88,0.00,,,0.28,51,Wunderground v.1.15,2013-04-17 21:40:00,
2013-04-17 16:41:00,39.7,36.4,30.12,NE,51,5.0,11.0,88,0.00,,,0.28,54,Wunderground v.1.15,2013-04-17 21:41:00,
2013-04-17 16:42:00,39.7,36.4,30.12,East,86,6.0,11.0,88,0.00,,,0.28,53,Wunderground v.1.15,2013-04-17 21:42:00,
2013-04-17 16:45:00,39.8,36.5,30.11,NNE,28,5.0,11.0,88,0.00,,,0.28,47,Wunderground v.1.15,2013-04-17 21:45:00,
2013-04-17 16:46:00,39.8,36.5,30.11,SE,133,5.0,11.0,88,0.00,,,0.28,46,Wunderground v.1.15,2013-04-17 21:46:00,
2013-04-17 16:50:00,39.8,36.5,30.11,ENE,75,6.0,6.0,88,0.00,,,0.28,46,Wunderground v.1.15,2013-04-17 21:50:00,
2013-04-17 16:52:00,39.8,36.5,30.11,ENE,57,6.0,8.0,88,0.00,,,0.28,44,Wunderground v.1.15,2013-04-17 21:52:00,
2013-04-17 16:53:00,39.8,36.5,30.11,East,86,6.0,10.0,88,0.00,,,0.28,44,Wunderground v.1.15,2013-04-17 21:53:00,
2013-04-17 16:58:00,39.7,36.4,30.11,East,88,7.0,12.0,88,0.00,,,0.28,40,Wunderground v.1.15,2013-04-17 21:58:00,
2013-04-17 16:59:00,39.7,36.4,30.11,ENE,57,7.0,12.0,88,0.00,,,0.28,42,Wunderground v.1.15,2013-04-17 21:59:00,
2013-04-17 17:00:00,39.7,36.4,30.11,ENE,63,7.0,7.0,88,0.00,,,0.28,42,Wunderground v.1.15,2013-04-17 22:00:00,
2013-04-17 17:01:00,39.7,36.4,30.11,East,88,7.0,11.0,88,0.00,,,0.28,42,Wunderground v.1.15,2013-04-17 22:01:00,
2013-04-17 17:05:00,39.7,36.4,30.10,East,92,7.0,11.0,88,0.00,,,0.28,39,Wunderground v.1.15,2013-04-17 22:05:00,
2013-04-17 17:06:00,39.7,36.4,30.09,NE,49,7.0,11.0,88,0.00,,,0.28,39,Wunderground v.1.15,2013-04-17 22:06:00,
2013-04-17 17:08:00,39.7,36.4,30.09,North,5,7.0,11.0,88,0.00,,,0.28,37,Wunderground v.1.15,2013-04-17 22:08:00,
2013-04-17 17:09:00,39.7,36.4,30.10,East,81,7.0,11.0,88,0.00,,,0.28,37,Wunderground v.1.15,2013-04-17 22:09:00,
2013-04-17 17:11:00,39.7,36.4,30.10,ESE,111,7.0,8.0,88,0.00,,,0.28,39,Wunderground v.1.15,2013-04-17 22:11:00,
2013-04-17 17:12:00,39.7,36.4,30.10,East,98,6.0,8.0,88,0.00,,,0.28,37,Wunderground v.1.15,2013-04-17 22:12:00,
2013-04-17 17:16:00,39.7,36.4,30.08,NE,36,6.0,8.0,88,0.00,,,0.28,40,Wunderground v.1.15,2013-04-17 22:16:00,
2013-04-17 17:18:00,39.7,36.4,30.08,East,84,5.0,8.0,88,0.00,,,0.28,39,Wunderground v.1.15,2013-04-17 22:18:00,
2013-04-17 17:19:00,39.7,36.4,30.08,NE,34,5.0,8.0,88,0.00,,,0.28,37,Wunderground v.1.15,2013-04-17 22:19:00,
2013-04-17 17:21:00,39.7,36.4,30.09,East,95,6.0,10.0,88,0.00,,,0.28,37,Wunderground v.1.15,2013-04-17 22:21:00,
2013-04-17 17:22:00,39.7,36.4,30.09,NE,36,6.0,10.0,88,0.00,,,0.28,37,Wunderground v.1.15,2013-04-17 22:22:00,
2013-04-17 17:24:00,39.7,36.4,30.09,NE,53,8.0,10.0,88,0.00,,,0.28,37,Wunderground v.1.15,2013-04-17 22:24:00,
2013-04-17 17:27:00,39.6,36.3,30.09,East,86,8.0,10.0,88,0.00,,,0.28,35,Wunderground v.1.15,2013-04-17 22:27:00,
2013-04-17 17:28:00,39.6,36.3,30.09,ENE,69,9.0,10.0,88,0.00,,,0.28,32,Wunderground v.1.15,2013-04-17 22:28:00,
2013-04-17 17:29:00,39.6,36.3,30.09,ESE,113,9.0,10.0,88,0.00,,,0.28,30,Wunderground v.1.15,2013-04-17 22:29:00,
2013-04-17 17:33:00,39.7,36.4,30.09,NE,44,7.0,8.0,88,0.00,,,0.28,26,Wunderground v.1.15,2013-04-17 22:33:00,
2013-04-17 17:34:00,39.7,36.4,30.09,ENE,75,7.0,8.0,88,0.00,,,0.28,30,Wunderground v.1.15,2013-04-17 22:34:00,
2013-04-17 17:37:00,39.7,36.4,30.08,NE,50,7.0,13.0,88,0.00,,,0.28,32,Wunderground v.1.15,2013-04-17 22:37:00,
2013-04-17 17:38:00,39.7,36.4,30.08,NE,36,7.0,13.0,88,0.00,,,0.28,32,Wunderground v.1.15,2013-04-17 22:38:00,
2013-04-17 17:39:00,39.6,36.3,30.08,ENE,57,7.0,13.0,88,0.00,,,0.28,33,Wunderground v.1.15,2013-04-17 22:39:00,
2013-04-17 17:43:00,39.6,36.3,30.08,ENE,60,9.0,11.0,88,0.00,,,0.28,32,Wunderground v.1.15,2013-04-17 22:43:00,
2013-04-17 17:44:00,39.7,36.4,30.08,East,80,9.0,11.0,88,0.00,,,0.28,32,Wunderground v.1.15,2013-04-17 22:44:00,
2013-04-17 17:46:00,39.7,36.1,30.07,ENE,74,9.0,11.0,87,0.00,,,0.28,32,Wunderground v.1.15,2013-04-17 22:46:00,
2013-04-17 17:49:00,39.6,36.0,30.07,East,80,9.0,13.0,87,0.00,,,0.28,28,Wunderground v.1.15,2013-04-17 22:49:00,
2013-04-17 17:51:00,39.6,36.0,30.07,NE,44,8.0,8.0,87,0.00,,,0.28,30,Wunderground v.1.15,2013-04-17 22:51:00,
2013-04-17 17:53:00,39.6,36.0,30.07,East,90,9.0,10.0,87,0.00,,,0.28,28,Wunderground v.1.15,2013-04-17 22:53:00,
2013-04-17 17:57:00,39.7,36.1,30.06,East,94,10.0,16.0,87,0.00,,,0.28,30,Wunderground v.1.15,2013-04-17 22:57:00,
2013-04-17 17:58:00,39.6,36.0,30.06,NE,44,10.0,16.0,87,0.00,,,0.28,26,Wunderground v.1.15,2013-04-17 22:58:00,
2013-04-17 18:02:00,39.6,36.0,30.05,East,79,9.0,12.0,87,0.00,,,0.28,28,Wunderground v.1.15,2013-04-17 23:02:00,
2013-04-17 18:03:00,39.7,36.1,30.05,ESE,121,9.0,12.0,87,0.00,,,0.28,28,Wunderground v.1.15,2013-04-17 23:03:00,
2013-04-17 18:04:00,39.6,36.0,30.05,NE,44,8.0,12.0,87,0.00,,,0.28,26,Wunderground v.1.15,2013-04-17 23:04:00,
2013-04-17 18:05:00,39.7,36.1,30.05,East,84,8.0,12.0,87,0.00,,,0.28,26,Wunderground v.1.15,2013-04-17 23:05:00,
2013-04-17 18:08:00,39.7,36.1,30.05,ENE,63,7.0,12.0,87,0.00,,,0.28,25,Wunderground v.1.15,2013-04-17 23:08:00,
2013-04-17 18:09:00,39.7,36.1,30.05,NE,36,7.0,12.0,87,0.00,,,0.28,23,Wunderground v.1.15,2013-04-17 23:09:00,
2013-04-17 18:12:00,39.7,36.1,30.05,ENE,61,6.0,7.0,87,0.00,,,0.28,21,Wunderground v.1.15,2013-04-17 23:12:00,
2013-04-17 18:15:00,39.7,36.1,30.05,ENE,68,7.0,15.0,87,0.00,,,0.28,19,Wunderground v.1.15,2013-04-17 23:15:00,
2013-04-17 18:17:00,39.7,36.1,30.04,East,88,7.0,15.0,87,0.00,,,0.28,19,Wunderground v.1.15,2013-04-17 23:17:00,
2013-04-17 18:18:00,39.6,36.0,30.04,NNE,33,7.0,15.0,87,0.00,,,0.28,18,Wunderground v.1.15,2013-04-17 23:18:00,
2013-04-17 18:19:00,39.6,36.3,30.03,ENE,69,8.0,15.0,88,0.00,,,0.28,18,Wunderground v.1.15,2013-04-17 23:19:00,
2013-04-17 18:21:00,39.6,36.3,30.03,ENE,72,8.0,10.0,88,0.00,,,0.28,18,Wunderground v.1.15,2013-04-17 23:21:00,
2013-04-17 18:23:00,39.6,36.3,30.04,NE,52,9.0,11.0,88,0.00,,,0.28,16,Wunderground v.1.15,2013-04-17 23:23:00,
2013-04-17 18:26:00,39.6,36.3,30.04,NE,52,8.0,11.0,88,0.00,,,0.28,16,Wunderground v.1.15,2013-04-17 23:26:00,
2013-04-17 18:28:00,39.6,36.3,30.03,ENE,59,8.0,13.0,88,0.00,,,0.28,14,Wunderground v.1.15,2013-04-17 23:28:00,
2013-04-17 18:30:00,39.5,36.2,30.02,North,9,8.0,10.0,88,0.00,,,0.28,16,Wunderground v.1.15,2013-04-17 23:30:00,
2013-04-17 18:31:00,39.5,36.2,30.01,ENE,67,8.0,10.0,88,0.00,,,0.28,18,Wunderground v.1.15,2013-04-17 23:31:00,
2013-04-17 18:33:00,39.5,36.2,30.01,ENE,64,8.0,10.0,88,0.00,,,0.28,18,Wunderground v.1.15,2013-04-17 23:33:00,
2013-04-17 18:37:00,39.5,36.5,30.01,ENE,59,8.0,12.0,89,0.00,,,0.28,14,Wunderground v.1.15,2013-04-17 23:37:00,
2013-04-17 18:38:00,39.5,36.5,30.01,North,355,8.0,12.0,89,0.00,,,0.28,12,Wunderground v.1.15,2013-04-17 23:38:00,
2013-04-17 18:39:00,39.5,36.5,30.01,North,10,7.0,12.0,89,0.00,,,0.28,14,Wunderground v.1.15,2013-04-17 23:39:00,
2013-04-17 18:42:00,39.5,36.5,30.00,NE,40,8.0,11.0,89,0.00,,,0.28,12,Wunderground v.1.15,2013-04-17 23:42:00,
2013-04-17 18:43:00,39.5,36.5,30.00,NE,36,8.0,11.0,89,0.00,,,0.28,12,Wunderground v.1.15,2013-04-17 23:43:00,
2013-04-17 18:44:00,39.5,36.5,30.00,NE,50,8.0,11.0,89,0.00,,,0.28,12,Wunderground v.1.15,2013-04-17 23:44:00,
2013-04-17 18:45:00,39.5,36.5,30.00,North,9,8.0,11.0,89,0.00,,,0.28,12,Wunderground v.1.15,2013-04-17 23:45:00,
2013-04-17 18:48:00,39.5,36.5,30.00,NE,46,8.0,11.0,89,0.00,,,0.28,9,Wunderground v.1.15,2013-04-17 23:48:00,
2013-04-17 18:52:00,39.5,36.5,30.00,ENE,57,7.0,8.0,89,0.00,,,0.28,9,Wunderground v.1.15,2013-04-17 23:52:00,
2013-04-17 18:53:00,39.5,36.5,30.00,NE,39,8.0,8.0,89,0.00,,,0.28,9,Wunderground v.1.15,2013-04-17 23:53:00,
2013-04-17 18:54:00,39.5,36.5,30.00,ENE,57,8.0,8.0,89,0.00,,,0.28,9,Wunderground v.1.15,2013-04-17 23:54:00,
2013-04-17 18:56:00,39.5,36.5,30.00,NNE,32,7.0,12.0,89,0.00,,,0.28,9,Wunderground v.1.15,2013-04-17 23:56:00,
2013-04-17 18:57:00,39.5,36.5,30.00,ENE,63,8.0,12.0,89,0.00,,,0.28,7,Wunderground v.1.15,2013-04-17 23:57:00,
2013-04-17 19:01:00,39.5,36.5,30.01,ENE,69,8.0,13.0,89,0.00,,,0.28,5,Wunderground v.1.15,2013-04-18 00:01:00,
2013-04-17 19:02:00,39.5,36.5,30.01,ENE,71,8.0,13.0,89,0.00,,,0.28,5,Wunderground v.1.15,2013-04-18 00:02:00,
2013-04-17 19:03:00,39.5,36.5,30.01,East,95,8.0,13.0,89,0.00,,,0.28,5,Wunderground v.1.15,2013-04-18 00:03:00,
2013-04-17 19:06:00,39.5,36.5,30.00,NE,52,8.0,13.0,89,0.00,,,0.28,5,Wunderground v.1.15,2013-04-18 00:06:00,
2013-04-17 19:09:00,39.5,36.5,29.99,NE,50,8.0,13.0,89,0.00,,,0.28,5,Wunderground v.1.15,2013-04-18 00:09:00,
2013-04-17 19:11:00,39.5,36.5,29.98,NE,42,9.0,18.0,89,0.00,,,0.28,0,Wunderground v.1.15,2013-04-18 00:11:00,
2013-04-17 19:12:00,39.4,36.4,29.97,NE,40,10.0,18.0,89,0.00,,,0.28,0,Wunderground v.1.15,2013-04-18 00:12:00,
2013-04-17 19:14:00,39.4,36.4,29.97,NE,55,12.0,18.0,89,0.00,,,0.28,0,Wunderground v.1.15,2013-04-18 00:14:00,
2013-04-17 19:17:00,39.3,36.3,29.97,East,92,11.0,18.0,89,0.00,,,0.28,0,Wunderground v.1.15,2013-04-18 00:17:00,
2013-04-17 19:18:00,39.3,36.3,29.97,ENE,71,11.0,18.0,89,0.00,,,0.28,0,Wunderground v.1.15,2013-04-18 00:18:00,
2013-04-17 19:19:00,39.3,36.3,29.98,East,82,11.0,18.0,89,0.00,,,0.28,0,Wunderground v.1.15,2013-04-18 00:19:00,
2013-04-17 19:20:00,39.3,36.3,29.97,East,82,11.0,11.0,89,0.00,,,0.28,0,Wunderground v.1.15,2013-04-18 00:20:00,
2013-04-17 19:22:00,39.3,36.3,29.98,ENE,78,9.0,11.0,89,0.00,,,0.28,0,Wunderground v.1.15,2013-04-18 00:22:00,
2013-04-17 19:25:00,39.3,36.3,29.98,NE,51,8.0,13.0,89,0.00,,,0.28,0,Wunderground v.1.15,2013-04-18 00:25:00,
2013-04-17 19:27:00,39.3,36.3,29.97,ENE,59,8.0,15.0,89,0.00,,,0.28,0,Wunderground v.1.15,2013-04-18 00:27:00,
2013-04-17 19:28:00,39.3,36.3,29.97,NE,51,9.0,15.0,89,0.00,,,0.28,0,Wunderground v.1.15,2013-04-18 00:28:00,
2013-04-17 19:30:00,39.3,36.3,29.97,NE,54,9.0,9.0,89,0.00,,,0.28,0,Wunderground v.1.15,2013-04-18 00:30:00,
2013-04-17 19:32:00,39.3,36.3,29.98,North,5,10.0,10.0,89,0.00,,,0.28,0,Wunderground v.1.15,2013-04-18 00:32:00,
2013-04-17 19:34:00,39.3,36.3,29.98,ENE,58,10.0,20.0,89,0.00,,,0.28,0,Wunderground v.1.15,2013-04-18 00:34:00,
2013-04-17 19:36:00,39.3,36.3,29.98,NE,34,10.0,20.0,89,0.00,,,0.28,0,Wunderground v.1.15,2013-04-18 00:36:00,
2013-04-17 19:38:00,39.3,36.3,29.99,ENE,70,8.0,20.0,89,0.00,,,0.28,0,Wunderground v.1.15,2013-04-18 00:38:00,
2013-04-17 19:39:00,39.3,36.3,29.99,ENE,71,7.0,20.0,89,0.00,,,0.28,0,Wunderground v.1.15,2013-04-18 00:39:00,
2013-04-17 19:41:00,39.3,36.6,29.99,NE,51,7.0,10.0,90,0.00,,,0.28,0,Wunderground v.1.15,2013-04-18 00:41:00,
2013-04-17 19:44:00,39.3,36.6,29.99,NNE,28,7.0,10.0,90,0.00,,,0.28,0,Wunderground v.1.15,2013-04-18 00:44:00,
2013-04-17 19:47:00,39.3,36.6,29.99,NNE,23,7.0,10.0,90,0.00,,,0.28,0,Wunderground v.1.15,2013-04-18 00:47:00,
2013-04-17 19:48:00,39.3,36.6,29.99,East,94,7.0,10.0,90,0.00,,,0.28,0,Wunderground v.1.15,2013-04-18 00:48:00,
2013-04-17 19:49:00,39.3,36.6,29.99,East,87,7.0,10.0,90,0.00,,,0.28,0,Wunderground v.1.15,2013-04-18 00:49:00,
2013-04-17 19:54:00,39.3,36.6,29.98,NNE,29,8.0,11.0,90,0.00,,,0.28,0,Wunderground v.1.15,2013-04-18 00:54:00,
2013-04-17 19:55:00,39.3,36.6,29.97,ENE,61,8.0,15.0,90,0.00,,,0.28,0,Wunderground v.1.15,2013-04-18 00:55:00,
2013-04-17 19:56:00,39.3,36.6,29.97,ENE,62,8.0,15.0,90,0.00,,,0.28,0,Wunderground v.1.15,2013-04-18 00:56:00,
2013-04-17 19:57:00,39.2,36.5,29.97,NE,46,8.0,15.0,90,0.00,,,0.28,0,Wunderground v.1.15,2013-04-18 00:57:00,
2013-04-17 19:58:00,39.2,36.5,29.97,East,94,8.0,15.0,90,0.00,,,0.28,0,Wunderground v.1.15,2013-04-18 00:58:00,
2013-04-17 20:00:00,39.2,36.5,29.97,ENE,66,9.0,13.0,90,0.00,,,0.28,0,Wunderground v.1.15,2013-04-18 01:00:00,
2013-04-17 20:01:00,39.2,36.5,29.97,NE,50,9.0,13.0,90,0.00,,,0.28,0,Wunderground v.1.15,2013-04-18 01:01:00,
2013-04-17 20:03:00,39.2,36.5,29.97,ENE,59,9.0,13.0,90,0.00,,,0.28,0,Wunderground v.1.15,2013-04-18 01:03:00,
2013-04-17 20:05:00,39.1,36.4,29.97,ENE,63,8.0,13.0,90,0.00,,,0.28,0,Wunderground v.1.15,2013-04-18 01:05:00,
2013-04-17 20:06:00,39.1,36.4,29.97,ESE,107,8.0,13.0,90,0.00,,,0.28,0,Wunderground v.1.15,2013-04-18 01:06:00,
2013-04-17 20:08:00,39.1,36.4,29.97,ENE,69,9.0,14.0,90,0.00,,,0.28,0,Wunderground v.1.15,2013-04-18 01:08:00,
2013-04-17 20:10:00,39.1,36.4,29.98,ESE,110,9.0,9.0,90,0.00,,,0.28,0,Wunderground v.1.15,2013-04-18 01:10:00,
2013-04-17 20:14:00,39.1,36.4,29.99,East,96,9.0,10.0,90,0.00,,,0.28,0,Wunderground v.1.15,2013-04-18 01:14:00,
2013-04-17 20:15:00,39.1,36.4,30.00,SE,129,9.0,10.0,90,0.00,,,0.28,0,Wunderground v.1.15,2013-04-18 01:15:00,
2013-04-17 20:17:00,39.2,36.5,30.00,ESE,111,8.0,12.0,90,0.00,,,0.28,0,Wunderground v.1.15,2013-04-18 01:17:00,
2013-04-17 20:21:00,39.2,36.5,30.01,ESE,113,7.0,9.0,90,0.00,,,0.28,0,Wunderground v.1.15,2013-04-18 01:21:00,
2013-04-17 20:22:00,39.2,36.8,30.01,ENE,66,7.0,9.0,91,0.00,,,0.28,0,Wunderground v.1.15,2013-04-18 01:22:00,
2013-04-17 20:23:00,39.2,36.8,30.01,ENE,78,7.0,11.0,91,0.00,,,0.28,0,Wunderground v.1.15,2013-04-18 01:23:00,
2013-04-17 20:25:00,39.2,36.8,30.01,East,85,8.0,11.0,91,0.00,,,0.28,0,Wunderground v.1.15,2013-04-18 01:25:00,
2013-04-17 20:28:00,39.2,36.8,30.01,East,90,7.0,11.0,91,0.00,,,0.28,0,Wunderground v.1.15,2013-04-18 01:28:00,
2013-04-17 20:29:00,39.2,36.8,30.01,ENE,67,7.0,11.0,91,0.00,,,0.28,0,Wunderground v.1.15,2013-04-18 01:29:00,
2013-04-17 20:30:00,39.2,36.8,30.01,ENE,76,7.0,7.0,91,0.00,,,0.28,0,Wunderground v.1.15,2013-04-18 01:30:00,
2013-04-17 20:31:00,39.2,36.8,30.02,ENE,58,6.0,7.0,91,0.00,,,0.28,0,Wunderground v.1.15,2013-04-18 01:31:00,
2013-04-17 20:33:00,39.2,36.8,30.03,East,82,6.0,7.0,91,0.00,,,0.28,0,Wunderground v.1.15,2013-04-18 01:33:00,
2013-04-17 20:34:00,39.2,36.8,30.03,East,83,5.0,7.0,91,0.00,,,0.28,0,Wunderground v.1.15,2013-04-18 01:34:00,
2013-04-17 20:35:00,39.2,36.8,30.03,East,83,4.0,7.0,91,0.00,,,0.28,0,Wunderground v.1.15,2013-04-18 01:35:00,
2013-04-17 20:36:00,39.3,36.9,30.03,ENE,59,3.0,7.0,91,0.00,,,0.28,0,Wunderground v.1.15,2013-04-18 01:36:00,
2013-04-17 20:38:00,39.3,36.9,30.03,NNE,33,3.0,7.0,91,0.00,,,0.28,0,Wunderground v.1.15,2013-04-18 01:38:00,
2013-04-17 20:42:00,39.3,36.9,30.03,ESE,113,3.0,4.0,91,0.00,,,0.28,0,Wunderground v.1.15,2013-04-18 01:42:00,
2013-04-17 20:43:00,39.3,36.9,30.02,NE,46,2.0,4.0,91,0.00,,,0.28,0,Wunderground v.1.15,2013-04-18 01:43:00,
2013-04-17 20:44:00,39.3,36.9,30.02,NE,34,3.0,6.0,91,0.00,,,0.28,0,Wunderground v.1.15,2013-04-18 01:44:00,
2013-04-17 20:46:00,39.3,36.9,30.02,NE,38,4.0,6.0,91,0.00,,,0.28,0,Wunderground v.1.15,2013-04-18 01:46:00,
2013-04-17 20:49:00,39.3,36.9,30.02,NE,48,3.0,6.0,91,0.00,,,0.28,0,Wunderground v.1.15,2013-04-18 01:49:00,
2013-04-17 20:50:00,39.3,36.9,30.02,East,82,3.0,5.0,91,0.00,,,0.28,0,Wunderground v.1.15,2013-04-18 01:50:00,
2013-04-17 20:51:00,39.3,36.9,30.02,NE,53,4.0,5.0,91,0.00,,,0.28,0,Wunderground v.1.15,2013-04-18 01:51:00,
2013-04-17 20:53:00,39.3,36.9,30.02,NE,40,4.0,6.0,91,0.00,,,0.28,0,Wunderground v.1.15,2013-04-18 01:53:00,
2013-04-17 20:56:00,39.3,36.9,30.02,NNE,14,5.0,6.0,91,0.00,,,0.28,0,Wunderground v.1.15,2013-04-18 01:56:00,
2013-04-17 20:57:00,39.3,36.9,30.02,NE,50,5.0,7.0,91,0.00,,,0.28,0,Wunderground v.1.15,2013-04-18 01:57:00,
2013-04-17 20:58:00,39.3,36.9,30.01,NE,54,5.0,7.0,91,0.00,,,0.28,0,Wunderground v.1.15,2013-04-18 01:58:00,
2013-04-17 21:02:00,39.2,36.8,30.01,NNE,15,5.0,7.0,91,0.00,,,0.28,0,Wunderground v.1.15,2013-04-18 02:02:00,
2013-04-17 21:04:00,39.3,36.9,30.01,North,5,5.0,7.0,91,0.00,,,0.28,0,Wunderground v.1.15,2013-04-18 02:04:00,
2013-04-17 21:07:00,39.2,36.8,30.00,NNE,17,5.0,8.0,91,0.00,,,0.28,0,Wunderground v.1.15,2013-04-18 02:07:00,
2013-04-17 21:08:00,39.2,36.8,30.00,NNE,12,5.0,8.0,91,0.00,,,0.28,0,Wunderground v.1.15,2013-04-18 02:08:00,
2013-04-17 21:09:00,39.2,36.8,30.00,NE,40,5.0,8.0,91,0.00,,,0.28,0,Wunderground v.1.15,2013-04-18 02:09:00,
2013-04-17 21:10:00,39.2,36.8,30.00,North,355,6.0,6.0,91,0.00,,,0.28,0,Wunderground v.1.15,2013-04-18 02:10:00,
2013-04-17 21:13:00,39.2,37.1,30.00,NNW,336,6.0,6.0,92,0.00,,,0.28,0,Wunderground v.1.15,2013-04-18 02:13:00,
2013-04-17 21:15:00,39.1,36.7,30.01,North,351,6.0,6.0,91,0.00,,,0.28,0,Wunderground v.1.15,2013-04-18 02:15:00,
2013-04-17 21:18:00,39.1,36.7,30.00,NE,46,5.0,8.0,91,0.00,,,0.28,0,Wunderground v.1.15,2013-04-18 02:18:00,
2013-04-17 21:19:00,39.1,36.7,30.00,NE,34,5.0,8.0,91,0.00,,,0.28,0,Wunderground v.1.15,2013-04-18 02:19:00,
2013-04-17 21:21:00,39.1,37.0,30.00,NNE,19,5.0,7.0,92,0.00,,,0.29,0,Wunderground v.1.15,2013-04-18 02:21:00,
2013-04-17 21:24:00,39.1,37.0,30.00,North,9,5.0,8.0,92,0.15,,,0.30,0,Wunderground v.1.15,2013-04-18 02:24:00,
2013-04-17 21:25:00,39.1,37.0,30.00,North,355,5.0,8.0,92,0.15,,,0.30,0,Wunderground v.1.15,2013-04-18 02:25:00,
2013-04-17 21:28:00,39.0,36.9,30.00,NE,38,5.0,8.0,92,0.19,,,0.31,0,Wunderground v.1.15,2013-04-18 02:28:00,
2013-04-17 21:31:00,38.9,36.8,30.00,North,11,5.0,6.0,92,0.20,,,0.32,0,Wunderground v.1.15,2013-04-18 02:31:00,
2013-04-17 21:33:00,38.9,36.8,30.00,North,350,4.0,6.0,92,0.16,,,0.32,0,Wunderground v.1.15,2013-04-18 02:33:00,
2013-04-17 21:34:00,38.8,36.7,30.00,NNW,331,4.0,6.0,92,0.14,,,0.32,0,Wunderground v.1.15,2013-04-18 02:34:00,
2013-04-17 21:37:00,38.8,36.7,30.00,North,355,4.0,6.0,92,0.12,,,0.33,0,Wunderground v.1.15,2013-04-18 02:37:00,
2013-04-17 21:38:00,38.7,36.6,30.00,NNE,23,4.0,6.0,92,0.12,,,0.33,0,Wunderground v.1.15,2013-04-18 02:38:00,
2013-04-17 21:40:00,38.7,36.6,30.00,North,355,4.0,4.0,92,0.12,,,0.33,0,Wunderground v.1.15,2013-04-18 02:40:00,
2013-04-17 21:42:00,38.7,36.6,30.00,NNE,12,4.0,5.0,92,0.11,,,0.34,0,Wunderground v.1.15,2013-04-18 02:42:00,
2013-04-17 21:43:00,38.7,36.6,30.00,NW,321,4.0,5.0,92,0.11,,,0.34,0,Wunderground v.1.15,2013-04-18 02:43:00,
2013-04-17 21:45:00,38.7,36.6,30.00,NNW,344,4.0,5.0,92,0.11,,,0.34,0,Wunderground v.1.15,2013-04-18 02:45:00,
2013-04-17 21:48:00,38.6,36.5,30.01,NNW,344,3.0,6.0,92,0.08,,,0.34,0,Wunderground v.1.15,2013-04-18 02:48:00,
2013-04-17 21:51:00,38.6,36.5,30.01,North,355,4.0,4.0,92,0.08,,,0.35,0,Wunderground v.1.15,2013-04-18 02:51:00,
2013-04-17 21:54:00,38.6,36.8,30.01,North,360,3.0,4.0,93,0.12,,,0.36,0,Wunderground v.1.15,2013-04-18 02:54:00,
2013-04-17 21:56:00,38.6,36.8,30.01,NNW,344,3.0,4.0,93,0.12,,,0.36,0,Wunderground v.1.15,2013-04-18 02:56:00,
2013-04-17 21:57:00,38.6,36.8,30.01,NNE,32,3.0,8.0,93,0.12,,,0.36,0,Wunderground v.1.15,2013-04-18 02:57:00,
2013-04-17 22:00:00,38.6,36.8,30.00,ENE,57,4.0,6.0,93,0.09,,,0.37,0,Wunderground v.1.15,2013-04-18 03:00:00,
2013-04-17 22:01:00,38.6,36.8,30.00,NE,36,4.0,6.0,93,0.09,,,0.37,0,Wunderground v.1.15,2013-04-18 03:01:00,
2013-04-17 22:05:00,38.5,36.7,30.00,NNE,30,5.0,6.0,93,0.09,,,0.37,0,Wunderground v.1.15,2013-04-18 03:05:00,
2013-04-17 22:06:00,38.5,36.7,30.00,ENE,59,4.0,6.0,93,0.09,,,0.37,0,Wunderground v.1.15,2013-04-18 03:06:00,
2013-04-17 22:09:00,38.5,36.7,30.00,ENE,61,4.0,6.0,93,0.08,,,0.38,0,Wunderground v.1.15,2013-04-18 03:09:00,
2013-04-17 22:10:00,38.5,36.7,30.00,NE,48,4.0,8.0,93,0.08,,,0.38,0,Wunderground v.1.15,2013-04-18 03:10:00,
2013-04-17 22:12:00,38.5,36.7,30.00,NE,38,4.0,8.0,93,0.08,,,0.38,0,Wunderground v.1.15,2013-04-18 03:12:00,
2013-04-17 22:13:00,38.4,36.6,30.00,NE,43,4.0,8.0,93,0.08,,,0.38,0,Wunderground v.1.15,2013-04-18 03:13:00,
2013-04-17 22:15:00,38.4,36.6,30.00,NE,34,5.0,8.0,93,0.08,,,0.39,0,Wunderground v.1.15,2013-04-18 03:15:00,
2013-04-17 22:18:00,38.4,36.6,29.99,NNE,30,5.0,8.0,93,0.08,,,0.39,0,Wunderground v.1.15,2013-04-18 03:18:00,
2013-04-17 22:20:00,38.4,36.6,29.99,NE,34,5.0,5.0,93,0.08,,,0.39,0,Wunderground v.1.15,2013-04-18 03:20:00,
2013-04-17 22:21:00,38.4,36.6,29.99,NNE,22,5.0,5.0,93,0.08,,,0.39,0,Wunderground v.1.15,2013-04-18 03:21:00,
2013-04-17 22:22:00,38.4,36.6,29.99,NE,34,4.0,5.0,93,0.08,,,0.39,0,Wunderground v.1.15,2013-04-18 03:22:00,
2013-04-17 22:24:00,38.4,36.6,29.99,NE,46,4.0,6.0,93,0.07,,,0.40,0,Wunderground v.1.15,2013-04-18 03:24:00,
2013-04-17 22:26:00,38.4,36.6,29.99,ENE,59,4.0,6.0,93,0.07,,,0.40,0,Wunderground v.1.15,2013-04-18 03:26:00,
2013-04-17 22:29:00,38.3,36.5,29.98,ENE,71,3.0,6.0,93,0.10,,,0.40,0,Wunderground v.1.15,2013-04-18 03:29:00,
2013-04-17 22:30:00,38.3,36.5,29.98,NNE,14,3.0,5.0,93,0.10,,,0.41,0,Wunderground v.1.15,2013-04-18 03:30:00,
2013-04-17 22:32:00,38.3,36.5,29.98,ENE,73,4.0,5.0,93,0.10,,,0.41,0,Wunderground v.1.15,2013-04-18 03:32:00,
2013-04-17 22:33:00,38.3,36.5,29.98,ENE,63,3.0,5.0,93,0.10,,,0.41,0,Wunderground v.1.15,2013-04-18 03:33:00,
2013-04-17 22:34:00,38.3,36.5,29.97,NNE,19,3.0,5.0,93,0.10,,,0.41,0,Wunderground v.1.15,2013-04-18 03:34:00,
2013-04-17 22:36:00,38.3,36.5,29.97,NE,48,4.0,11.0,93,0.09,,,0.41,0,Wunderground v.1.15,2013-04-18 03:36:00,
2013-04-17 22:39:00,38.3,36.5,29.97,ENE,71,5.0,11.0,93,0.08,,,0.42,0,Wunderground v.1.15,2013-04-18 03:39:00,
2013-04-17 22:40:00,38.3,36.5,29.97,East,89,5.0,6.0,93,0.08,,,0.42,0,Wunderground v.1.15,2013-04-18 03:40:00,
2013-04-17 22:45:00,38.2,36.4,29.96,NE,34,5.0,7.0,93,0.08,,,0.43,0,Wunderground v.1.15,2013-04-18 03:45:00,
2013-04-17 22:47:00,38.3,36.5,29.96,East,96,4.0,7.0,93,0.08,,,0.43,0,Wunderground v.1.15,2013-04-18 03:47:00,
2013-04-17 22:48:00,38.3,36.5,29.95,NNE,17,4.0,7.0,93,0.08,,,0.43,0,Wunderground v.1.15,2013-04-18 03:48:00,
2013-04-17 22:52:00,38.3,36.5,29.95,NE,45,4.0,5.0,93,0.08,,,0.43,0,Wunderground v.1.15,2013-04-18 03:52:00,
2013-04-17 22:54:00,38.2,36.4,29.95,ENE,61,3.0,5.0,93,0.06,,,0.44,0,Wunderground v.1.15,2013-04-18 03:54:00,
2013-04-17 22:57:00,38.3,36.5,29.95,NNE,27,3.0,5.0,93,0.06,,,0.44,0,Wunderground v.1.15,2013-04-18 03:57:00,
2013-04-17 22:58:00,38.2,36.4,29.95,NNE,27,3.0,5.0,93,0.06,,,0.44,0,Wunderground v.1.15,2013-04-18 03:58:00,
2013-04-17 22:59:00,38.2,36.4,29.95,NNE,27,3.0,5.0,93,0.06,,,0.44,0,Wunderground v.1.15,2013-04-18 03:59:00,
2013-04-17 23:01:00,38.3,36.5,29.95,NNE,27,2.0,2.0,93,0.06,,,0.44,0,Wunderground v.1.15,2013-04-18 04:01:00,
2013-04-17 23:02:00,38.3,36.5,29.95,ESE,108,2.0,2.0,93,0.06,,,0.44,0,Wunderground v.1.15,2013-04-18 04:02:00,
2013-04-17 23:07:00,38.3,36.5,29.95,ESE,104,0.0,2.0,93,0.04,,,0.44,0,Wunderground v.1.15,2013-04-18 04:07:00,
2013-04-17 23:08:00,38.3,36.5,29.95,ESE,104,0.0,2.0,93,0.04,,,0.44,0,Wunderground v.1.15,2013-04-18 04:08:00,
2013-04-17 23:09:00,38.3,36.5,29.96,ESE,104,0.0,2.0,93,0.04,,,0.45,0,Wunderground v.1.15,2013-04-18 04:09:00,
2013-04-17 23:11:00,38.3,36.5,29.96,ESE,104,0.0,0.0,93,0.04,,,0.45,0,Wunderground v.1.15,2013-04-18 04:11:00,
2013-04-17 23:13:00,38.4,36.6,29.95,NE,54,0.0,5.0,93,0.04,,,0.45,0,Wunderground v.1.15,2013-04-18 04:13:00,
2013-04-17 23:14:00,38.4,36.6,29.95,NE,51,1.0,8.0,93,0.04,,,0.45,0,Wunderground v.1.15,2013-04-18 04:14:00,
2013-04-17 23:15:00,38.4,36.6,29.95,NE,53,2.0,8.0,93,0.04,,,0.45,0,Wunderground v.1.15,2013-04-18 04:15:00,
2013-04-17 23:16:00,38.4,36.6,29.94,ENE,72,2.0,8.0,93,0.04,,,0.45,0,Wunderground v.1.15,2013-04-18 04:16:00,
2013-04-17 23:18:00,38.4,36.6,29.94,East,88,3.0,8.0,93,0.04,,,0.45,0,Wunderground v.1.15,2013-04-18 04:18:00,
2013-04-17 23:19:00,38.4,36.6,29.94,NNE,21,3.0,8.0,93,0.04,,,0.45,0,Wunderground v.1.15,2013-04-18 04:19:00,
2013-04-17 23:21:00,38.4,36.6,29.93,ENE,61,4.0,8.0,93,0.04,,,0.45,0,Wunderground v.1.15,2013-04-18 04:21:00,
2013-04-17 23:24:00,38.5,36.7,29.92,NE,34,5.0,8.0,93,0.04,,,0.46,0,Wunderground v.1.15,2013-04-18 04:24:00,
2013-04-17 23:26:00,38.5,36.7,29.93,ENE,67,5.0,8.0,93,0.04,,,0.46,0,Wunderground v.1.15,2013-04-18 04:26:00,
2013-04-17 23:27:00,38.5,36.7,29.93,ENE,78,5.0,8.0,93,0.04,,,0.46,0,Wunderground v.1.15,2013-04-18 04:27:00,
2013-04-17 23:28:00,38.5,36.7,29.93,East,84,5.0,8.0,93,0.04,,,0.46,0,Wunderground v.1.15,2013-04-18 04:28:00,
2013-04-17 23:29:00,38.5,36.7,29.93,East,82,5.0,8.0,93,0.04,,,0.46,0,Wunderground v.1.15,2013-04-18 04:29:00,
2013-04-17 23:30:00,38.5,36.7,29.93,ESE,123,5.0,5.0,93,0.04,,,0.46,0,Wunderground v.1.15,2013-04-18 04:30:00,
2013-04-17 23:32:00,38.5,36.7,29.92,ENE,66,4.0,5.0,93,0.07,,,0.47,0,Wunderground v.1.15,2013-04-18 04:32:00,
2013-04-17 23:33:00,38.5,36.7,29.93,NE,49,4.0,5.0,93,0.07,,,0.47,0,Wunderground v.1.15,2013-04-18 04:33:00,
2013-04-17 23:36:00,38.5,36.7,29.92,ENE,62,3.0,5.0,93,0.07,,,0.47,0,Wunderground v.1.15,2013-04-18 04:36:00,
2013-04-17 23:37:00,38.6,36.8,29.92,ENE,57,3.0,5.0,93,0.07,,,0.47,0,Wunderground v.1.15,2013-04-18 04:37:00,
2013-04-17 23:38:00,38.5,36.7,29.92,North,360,4.0,8.0,93,0.10,,,0.48,0,Wunderground v.1.15,2013-04-18 04:38:00,
2013-04-17 23:41:00,38.6,36.8,29.92,NE,40,4.0,6.0,93,0.10,,,0.48,0,Wunderground v.1.15,2013-04-18 04:41:00,
2013-04-17 23:43:00,38.6,36.8,29.91,ENE,62,4.0,6.0,93,0.10,,,0.48,0,Wunderground v.1.15,2013-04-18 04:43:00,
2013-04-17 23:44:00,38.6,36.8,29.91,NE,51,4.0,6.0,93,0.10,,,0.48,0,Wunderground v.1.15,2013-04-18 04:44:00,
2013-04-17 23:45:00,38.6,36.8,29.91,NE,49,5.0,6.0,93,0.08,,,0.48,0,Wunderground v.1.15,2013-04-18 04:45:00,
2013-04-17 23:48:00,38.7,36.9,29.90,NE,55,4.0,6.0,93,0.08,,,0.49,0,Wunderground v.1.15,2013-04-18 04:48:00,
2013-04-17 23:49:00,38.6,36.8,29.90,NE,55,4.0,6.0,93,0.08,,,0.49,0,Wunderground v.1.15,2013-04-18 04:49:00,
2013-04-17 23:51:00,38.7,36.9,29.90,ENE,58,4.0,7.0,93,0.08,,,0.49,0,Wunderground v.1.15,2013-04-18 04:51:00,
2013-04-17 23:54:00,38.7,36.9,29.89,ESE,114,5.0,11.0,93,0.07,,,0.49,0,Wunderground v.1.15,2013-04-18 04:54:00,
2013-04-17 23:56:00,38.7,36.9,29.89,ENE,74,6.0,11.0,93,0.05,,,0.49,0,Wunderground v.1.15,2013-04-18 04:56:00,
2013-04-17 23:59:00,38.7,36.9,29.89,ENE,67,5.0,11.0,93,0.04,,,0.49,0,Wunderground v.1.15,2013-04-18 04:59:00,